<?xml version='1.0' encoding='UTF-8'?><gpx version="1.1" creator="JPX - https://github.com/jenetics/jpx" xmlns="http://www.topografix.com/GPX/1/1"><trk><trkseg><trkpt lat="43.31131990266756" lon="10.523195077043491"><ele>15.0</ele><time>2026-04-11T05:16:31.498Z</time></trkpt><trkpt lat="43.31124523802984" lon="10.523215627633071"><ele>15.0</ele><time>2026-04-11T05:16:37.499Z</time></trkpt><trkpt lat="43.311180012084684" lon="10.523235889101917"><ele>15.0</ele><time>2026-04-11T05:16:41.499Z</time></trkpt><trkpt lat="43.311132811756885" lon="10.523149055021232"><ele>15.0</ele><time>2026-04-11T05:16:46.499Z</time></trkpt><trkpt lat="43.31111190398624" lon="10.52304659363748"><ele>15.0</ele><time>2026-04-11T05:16:51Z</time></trkpt><trkpt lat="43.31109060982651" lon="10.522942652227098"><ele>15.0</ele><time>2026-04-11T05:16:56Z</time></trkpt><trkpt lat="43.3110580383834" lon="10.522865207051138"><ele>15.0</ele><time>2026-04-11T05:17:00Z</time></trkpt><trkpt lat="43.31103063537557" lon="10.5227848542374"><ele>15.142857142857142</ele><time>2026-04-11T05:17:05Z</time></trkpt><trkpt lat="43.31101020509335" lon="10.522693874177971"><ele>15.285714285714285</ele><time>2026-04-11T05:17:10Z</time></trkpt><trkpt lat="43.31098141600936" lon="10.522601421585378"><ele>15.428571428571427</ele><time>2026-04-11T05:17:15Z</time></trkpt><trkpt lat="43.31096120423272" lon="10.522517286918996"><ele>15.571428571428571</ele><time>2026-04-11T05:17:20Z</time></trkpt><trkpt lat="43.31093631976394" lon="10.522432822742726"><ele>15.714285714285712</ele><time>2026-04-11T05:17:25Z</time></trkpt><trkpt lat="43.310913616175974" lon="10.522337757032211"><ele>15.857142857142856</ele><time>2026-04-11T05:17:30.001Z</time></trkpt><trkpt lat="43.31088275075621" lon="10.522251284935471"><ele>16.0</ele><time>2026-04-11T05:17:35.001Z</time></trkpt><trkpt lat="43.310849479657406" lon="10.522155557220783"><ele>16.0</ele><time>2026-04-11T05:17:40.001Z</time></trkpt><trkpt lat="43.31079800941125" lon="10.52209038639784"><ele>15.999999999999998</ele><time>2026-04-11T05:17:45.001Z</time></trkpt><trkpt lat="43.310734829739545" lon="10.52210677556489"><ele>16.0</ele><time>2026-04-11T05:17:49.001Z</time></trkpt><trkpt lat="43.310669470858684" lon="10.522128726021684"><ele>16.0</ele><time>2026-04-11T05:17:54.001Z</time></trkpt><trkpt lat="43.31059515326348" lon="10.52214518870153"><ele>15.999999999999998</ele><time>2026-04-11T05:18:00.001Z</time></trkpt><trkpt lat="43.31051384679718" lon="10.52217058875921"><ele>16.0</ele><time>2026-04-11T05:18:05.001Z</time></trkpt><trkpt lat="43.31044937998295" lon="10.522211314979344"><ele>16.0</ele><time>2026-04-11T05:18:10.001Z</time></trkpt><trkpt lat="43.31039032092581" lon="10.522254966135991"><ele>15.571428571428571</ele><time>2026-04-11T05:18:14.001Z</time></trkpt><trkpt lat="43.31034392596701" lon="10.522192625073753"><ele>15.142857142857142</ele><time>2026-04-11T05:18:19.001Z</time></trkpt><trkpt lat="43.310326689896364" lon="10.522108049874653"><ele>14.714285714285714</ele><time>2026-04-11T05:18:23.001Z</time></trkpt><trkpt lat="43.31026680760061" lon="10.522023117411592"><ele>14.285714285714285</ele><time>2026-04-11T05:18:28.001Z</time></trkpt><trkpt lat="43.31025869087258" lon="10.521929487614026"><ele>13.857142857142858</ele><time>2026-04-11T05:18:32.001Z</time></trkpt><trkpt lat="43.31023414173601" lon="10.52184512936682"><ele>13.428571428571427</ele><time>2026-04-11T05:18:36.001Z</time></trkpt><trkpt lat="43.310200119602825" lon="10.521771804264496"><ele>13.0</ele><time>2026-04-11T05:18:39.001Z</time></trkpt><trkpt lat="43.31015137974791" lon="10.521706098887558"><ele>13.0</ele><time>2026-04-11T05:18:42.001Z</time></trkpt><trkpt lat="43.3101115015568" lon="10.521624794119537"><ele>13.0</ele><time>2026-04-11T05:18:46.001Z</time></trkpt><trkpt lat="43.31008900671645" lon="10.52153123828718"><ele>13.0</ele><time>2026-04-11T05:18:50.001Z</time></trkpt><trkpt lat="43.310079226086366" lon="10.521434580057603"><ele>13.0</ele><time>2026-04-11T05:18:56.001Z</time></trkpt><trkpt lat="43.310064297818414" lon="10.521338478097064"><ele>13.0</ele><time>2026-04-11T05:19:01.001Z</time></trkpt><trkpt lat="43.310023368913335" lon="10.52126334587091"><ele>13.0</ele><time>2026-04-11T05:19:04.001Z</time></trkpt><trkpt lat="43.3099941318609" lon="10.521182671529637"><ele>13.0</ele><time>2026-04-11T05:19:07.001Z</time></trkpt><trkpt lat="43.30995670062753" lon="10.521110479939207"><ele>13.0</ele><time>2026-04-11T05:19:10.001Z</time></trkpt><trkpt lat="43.30991039250135" lon="10.52104407738941"><ele>13.0</ele><time>2026-04-11T05:19:14.001Z</time></trkpt><trkpt lat="43.30988278591622" lon="10.520944878439362"><ele>13.0</ele><time>2026-04-11T05:19:19.001Z</time></trkpt><trkpt lat="43.309864477219485" lon="10.520846824210523"><ele>13.0</ele><time>2026-04-11T05:19:23.001Z</time></trkpt><trkpt lat="43.30985139409066" lon="10.520755388683641"><ele>13.0</ele><time>2026-04-11T05:19:27.001Z</time></trkpt><trkpt lat="43.30986784323452" lon="10.520648435105299"><ele>13.0</ele><time>2026-04-11T05:19:31.001Z</time></trkpt><trkpt lat="43.309863738919226" lon="10.520552676195038"><ele>13.0</ele><time>2026-04-11T05:19:38.001Z</time></trkpt><trkpt lat="43.30981901534931" lon="10.520489777814877"><ele>13.142857142857142</ele><time>2026-04-11T05:19:41.001Z</time></trkpt><trkpt lat="43.3098065646127" lon="10.520396858236149"><ele>13.285714285714286</ele><time>2026-04-11T05:19:44.001Z</time></trkpt><trkpt lat="43.30978414013031" lon="10.520315070536435"><ele>13.428571428571429</ele><time>2026-04-11T05:19:48.001Z</time></trkpt><trkpt lat="43.309760097377826" lon="10.520221003779543"><ele>13.571428571428571</ele><time>2026-04-11T05:19:52.001Z</time></trkpt><trkpt lat="43.30972919858433" lon="10.52012068333488"><ele>13.714285714285715</ele><time>2026-04-11T05:19:56.001Z</time></trkpt><trkpt lat="43.309716371429104" lon="10.520033901309333"><ele>13.857142857142858</ele><time>2026-04-11T05:20:00.001Z</time></trkpt><trkpt lat="43.3096892232645" lon="10.519943264503164"><ele>14.0</ele><time>2026-04-11T05:20:04.001Z</time></trkpt><trkpt lat="43.30966371462698" lon="10.519852321154527"><ele>13.714285714285714</ele><time>2026-04-11T05:20:08.001Z</time></trkpt><trkpt lat="43.309641014613796" lon="10.519768901371389"><ele>13.428571428571429</ele><time>2026-04-11T05:20:12.001Z</time></trkpt><trkpt lat="43.309632121772474" lon="10.519682233625149"><ele>13.142857142857142</ele><time>2026-04-11T05:20:16.001Z</time></trkpt><trkpt lat="43.309604920234044" lon="10.519596090634746"><ele>12.857142857142858</ele><time>2026-04-11T05:20:21.001Z</time></trkpt><trkpt lat="43.309565311715446" lon="10.519525669325933"><ele>12.571428571428571</ele><time>2026-04-11T05:20:24.001Z</time></trkpt><trkpt lat="43.30953265022572" lon="10.519441838679448"><ele>12.285714285714285</ele><time>2026-04-11T05:20:28.001Z</time></trkpt><trkpt lat="43.309501660520425" lon="10.519350336636215"><ele>12.0</ele><time>2026-04-11T05:20:32.001Z</time></trkpt><trkpt lat="43.30948620269392" lon="10.519244661986997"><ele>11.999999999999998</ele><time>2026-04-11T05:20:37.001Z</time></trkpt><trkpt lat="43.309473972558614" lon="10.519152442948485"><ele>12.0</ele><time>2026-04-11T05:20:41.001Z</time></trkpt><trkpt lat="43.30945793443158" lon="10.519059892148487"><ele>12.0</ele><time>2026-04-11T05:20:45.001Z</time></trkpt><trkpt lat="43.30941142519877" lon="10.519000694024337"><ele>12.0</ele><time>2026-04-11T05:20:49.001Z</time></trkpt><trkpt lat="43.309368074353564" lon="10.518923917525846"><ele>12.0</ele><time>2026-04-11T05:20:53.001Z</time></trkpt><trkpt lat="43.30931063413792" lon="10.518853782463026"><ele>11.999999999999998</ele><time>2026-04-11T05:20:57.001Z</time></trkpt><trkpt lat="43.309257037265354" lon="10.518772536969795"><ele>12.0</ele><time>2026-04-11T05:21:00.001Z</time></trkpt><trkpt lat="43.30922308104996" lon="10.518698537226038"><ele>11.999999999999998</ele><time>2026-04-11T05:21:03.001Z</time></trkpt><trkpt lat="43.3092427466975" lon="10.518594773500254"><ele>12.0</ele><time>2026-04-11T05:21:08Z</time></trkpt><trkpt lat="43.30927603861272" lon="10.518507871799178"><ele>12.0</ele><time>2026-04-11T05:21:12Z</time></trkpt><trkpt lat="43.30923661183832" lon="10.518436937317427"><ele>12.0</ele><time>2026-04-11T05:21:15Z</time></trkpt><trkpt lat="43.309212884595325" lon="10.518350037576544"><ele>12.0</ele><time>2026-04-11T05:21:21Z</time></trkpt><trkpt lat="43.309217589874166" lon="10.518249830774431"><ele>11.999999999999998</ele><time>2026-04-11T05:21:27Z</time></trkpt><trkpt lat="43.309230446847245" lon="10.518148053339303"><ele>12.0</ele><time>2026-04-11T05:21:35Z</time></trkpt><trkpt lat="43.30923872927066" lon="10.518053938441286"><ele>11.999999999999998</ele><time>2026-04-11T05:21:40Z</time></trkpt><trkpt lat="43.309236078259" lon="10.517946140422"><ele>12.0</ele><time>2026-04-11T05:21:44Z</time></trkpt><trkpt lat="43.30927024388995" lon="10.517867674098934"><ele>12.0</ele><time>2026-04-11T05:21:48Z</time></trkpt><trkpt lat="43.30927941983502" lon="10.517778262526365"><ele>12.0</ele><time>2026-04-11T05:21:52Z</time></trkpt><trkpt lat="43.30927599141235" lon="10.517685414825634"><ele>12.0</ele><time>2026-04-11T05:21:55Z</time></trkpt><trkpt lat="43.309256826525" lon="10.517576194693795"><ele>11.999999999999998</ele><time>2026-04-11T05:21:59Z</time></trkpt><trkpt lat="43.30923961176997" lon="10.517484159565788"><ele>12.0</ele><time>2026-04-11T05:22:04Z</time></trkpt><trkpt lat="43.30921002589213" lon="10.517406052801647"><ele>11.999999999999998</ele><time>2026-04-11T05:22:10Z</time></trkpt><trkpt lat="43.309143785480735" lon="10.517358137739508"><ele>12.0</ele><time>2026-04-11T05:22:14Z</time></trkpt><trkpt lat="43.309074468389404" lon="10.517316094247427"><ele>12.0</ele><time>2026-04-11T05:22:18Z</time></trkpt><trkpt lat="43.309083091300266" lon="10.517210733498183"><ele>12.0</ele><time>2026-04-11T05:22:24Z</time></trkpt><trkpt lat="43.3090856860731" lon="10.517106188824805"><ele>12.0</ele><time>2026-04-11T05:22:28Z</time></trkpt><trkpt lat="43.30905793810742" lon="10.51702726323712"><ele>11.999999999999998</ele><time>2026-04-11T05:22:31Z</time></trkpt><trkpt lat="43.3090139363781" lon="10.516949933357466"><ele>12.0</ele><time>2026-04-11T05:22:34Z</time></trkpt><trkpt lat="43.308976282081154" lon="10.516873637445038"><ele>12.0</ele><time>2026-04-11T05:22:37.001Z</time></trkpt><trkpt lat="43.3089484292124" lon="10.516787077894714"><ele>12.0</ele><time>2026-04-11T05:22:42.001Z</time></trkpt><trkpt lat="43.30893607497366" lon="10.516698215460643"><ele>12.0</ele><time>2026-04-11T05:22:47.001Z</time></trkpt><trkpt lat="43.30886637723391" lon="10.516644664268469"><ele>12.0</ele><time>2026-04-11T05:22:51.001Z</time></trkpt><trkpt lat="43.30888165536922" lon="10.516540446961258"><ele>12.0</ele><time>2026-04-11T05:22:55Z</time></trkpt><trkpt lat="43.30896729034724" lon="10.516489398802008"><ele>12.0</ele><time>2026-04-11T05:22:57Z</time></trkpt><trkpt lat="43.30903340853164" lon="10.516457520801909"><ele>12.0</ele><time>2026-04-11T05:22:59Z</time></trkpt><trkpt lat="43.30904210771148" lon="10.516368063457168"><ele>12.0</ele><time>2026-04-11T05:25:18Z</time></trkpt><trkpt lat="43.309055630738776" lon="10.516280717350105"><ele>12.0</ele><time>2026-04-11T05:25:26Z</time></trkpt><trkpt lat="43.30888458120214" lon="10.51621773269085"><ele>12.0</ele><time>2026-04-11T05:25:42Z</time></trkpt><trkpt lat="43.30894874523637" lon="10.516163392729634"><ele>12.0</ele><time>2026-04-11T05:25:53Z</time></trkpt><trkpt lat="43.30901274975996" lon="10.51612150053601"><ele>11.571428571428571</ele><time>2026-04-11T05:25:58Z</time></trkpt><trkpt lat="43.30906934418583" lon="10.516039399799501"><ele>11.142857142857142</ele><time>2026-04-11T05:26:02Z</time></trkpt><trkpt lat="43.3091104855952" lon="10.515972939900527"><ele>10.714285714285715</ele><time>2026-04-11T05:26:06Z</time></trkpt><trkpt lat="43.30916821477203" lon="10.515928543811926"><ele>10.285714285714285</ele><time>2026-04-11T05:26:11Z</time></trkpt><trkpt lat="43.309218616056874" lon="10.51586752844252"><ele>9.857142857142858</ele><time>2026-04-11T05:26:17Z</time></trkpt><trkpt lat="43.30925005631634" lon="10.515775338476113"><ele>9.428571428571429</ele><time>2026-04-11T05:26:22Z</time></trkpt><trkpt lat="43.309293336836156" lon="10.51569830034782"><ele>9.0</ele><time>2026-04-11T05:26:27Z</time></trkpt><trkpt lat="43.309360344701076" lon="10.515676298754727"><ele>9.000000000000002</ele><time>2026-04-11T05:26:34Z</time></trkpt><trkpt lat="43.30942038315665" lon="10.515619280854493"><ele>9.0</ele><time>2026-04-11T05:26:40Z</time></trkpt><trkpt lat="43.30946141433423" lon="10.515538080848472"><ele>9.0</ele><time>2026-04-11T05:26:47Z</time></trkpt><trkpt lat="43.30947034432717" lon="10.515436143602724"><ele>9.0</ele><time>2026-04-11T05:26:52Z</time></trkpt><trkpt lat="43.30948525829019" lon="10.515344340277615"><ele>9.0</ele><time>2026-04-11T05:26:57Z</time></trkpt><trkpt lat="43.30949188279584" lon="10.515247021820437"><ele>9.000000000000002</ele><time>2026-04-11T05:27:03Z</time></trkpt><trkpt lat="43.30949294885948" lon="10.515141347771461"><ele>9.0</ele><time>2026-04-11T05:27:09Z</time></trkpt><trkpt lat="43.30946605175687" lon="10.515051716906795"><ele>9.0</ele><time>2026-04-11T05:27:15Z</time></trkpt><trkpt lat="43.30944794426579" lon="10.514959608790635"><ele>9.0</ele><time>2026-04-11T05:27:20.026Z</time></trkpt><trkpt lat="43.30940168302329" lon="10.514602935149396"><ele>9.0</ele><time>2026-04-11T05:27:38.826Z</time></trkpt><trkpt lat="43.309335670656516" lon="10.514547825945014"><ele>9.0</ele><time>2026-04-11T05:27:40.7Z</time></trkpt><trkpt lat="43.309319881997766" lon="10.51444558303778"><ele>8.8</ele><time>2026-04-11T05:27:42.6Z</time></trkpt><trkpt lat="43.309176033378435" lon="10.514233003165522"><ele>8.600000000000001</ele><time>2026-04-11T05:27:52.1Z</time></trkpt><trkpt lat="43.30912596987948" lon="10.514169606132025"><ele>8.4</ele><time>2026-04-11T05:27:56Z</time></trkpt><trkpt lat="43.30907709383324" lon="10.514100966260754"><ele>8.200000000000001</ele><time>2026-04-11T05:28:04Z</time></trkpt><trkpt lat="43.30901317819112" lon="10.514094420330752"><ele>8.0</ele><time>2026-04-11T05:28:07Z</time></trkpt><trkpt lat="43.308977419930066" lon="10.51401666919127"><ele>8.0</ele><time>2026-04-11T05:28:13Z</time></trkpt><trkpt lat="43.30895745248647" lon="10.513932274932014"><ele>7.999999999999999</ele><time>2026-04-11T05:28:17Z</time></trkpt><trkpt lat="43.30898481012908" lon="10.513853710017827"><ele>8.0</ele><time>2026-04-11T05:28:23Z</time></trkpt><trkpt lat="43.30903234113829" lon="10.513793052553732"><ele>8.0</ele><time>2026-04-11T05:28:28Z</time></trkpt><trkpt lat="43.30910395529974" lon="10.513786360788853"><ele>7.999999999999999</ele><time>2026-04-11T05:28:34Z</time></trkpt><trkpt lat="43.30915776822355" lon="10.513857778953591"><ele>8.0</ele><time>2026-04-11T05:28:39Z</time></trkpt><trkpt lat="43.309223681423184" lon="10.513892740618834"><ele>8.0</ele><time>2026-04-11T05:28:46Z</time></trkpt><trkpt lat="43.30928130498185" lon="10.51385685467671"><ele>8.0</ele><time>2026-04-11T05:28:50Z</time></trkpt><trkpt lat="43.30935242851549" lon="10.513798790620363"><ele>7.999999999999999</ele><time>2026-04-11T05:28:57Z</time></trkpt><trkpt lat="43.30941966952989" lon="10.513752272516514"><ele>8.0</ele><time>2026-04-11T05:29:03Z</time></trkpt><trkpt lat="43.30948242942707" lon="10.513722298894082"><ele>8.0</ele><time>2026-04-11T05:29:08Z</time></trkpt><trkpt lat="43.30954869067041" lon="10.513688603583905"><ele>7.999999999999999</ele><time>2026-04-11T05:29:14Z</time></trkpt><trkpt lat="43.30961013969614" lon="10.513643216946662"><ele>8.0</ele><time>2026-04-11T05:29:19Z</time></trkpt><trkpt lat="43.30968213143515" lon="10.513597047047654"><ele>8.0</ele><time>2026-04-11T05:29:24Z</time></trkpt><trkpt lat="43.30974514513644" lon="10.513560293615647"><ele>8.142857142857142</ele><time>2026-04-11T05:29:29Z</time></trkpt><trkpt lat="43.30981054452015" lon="10.513515082720852"><ele>8.285714285714285</ele><time>2026-04-11T05:29:34Z</time></trkpt><trkpt lat="43.309867765711154" lon="10.513476968011746"><ele>8.428571428571429</ele><time>2026-04-11T05:29:38Z</time></trkpt><trkpt lat="43.309930078090346" lon="10.513442894946802"><ele>8.571428571428571</ele><time>2026-04-11T05:29:43Z</time></trkpt><trkpt lat="43.3099872243516" lon="10.513405883921264"><ele>8.714285714285715</ele><time>2026-04-11T05:29:47Z</time></trkpt><trkpt lat="43.31005668162759" lon="10.513375354360813"><ele>8.857142857142858</ele><time>2026-04-11T05:29:52Z</time></trkpt><trkpt lat="43.3101200434361" lon="10.513333149940287"><ele>9.0</ele><time>2026-04-11T05:29:58Z</time></trkpt><trkpt lat="43.31019122880126" lon="10.513298975664304"><ele>9.000000000000002</ele><time>2026-04-11T05:30:03Z</time></trkpt><trkpt lat="43.3102574542331" lon="10.513263758940255"><ele>9.0</ele><time>2026-04-11T05:30:08Z</time></trkpt><trkpt lat="43.31031717512864" lon="10.513221356462532"><ele>9.0</ele><time>2026-04-11T05:30:12Z</time></trkpt><trkpt lat="43.31037853447781" lon="10.513173921812232"><ele>9.0</ele><time>2026-04-11T05:30:17Z</time></trkpt><trkpt lat="43.31045323620598" lon="10.513143742901715"><ele>9.0</ele><time>2026-04-11T05:30:22Z</time></trkpt><trkpt lat="43.31051545342918" lon="10.513110460047203"><ele>9.000000000000002</ele><time>2026-04-11T05:30:26Z</time></trkpt><trkpt lat="43.31059009558838" lon="10.513075301099773"><ele>9.0</ele><time>2026-04-11T05:30:30Z</time></trkpt><trkpt lat="43.31065923606271" lon="10.513034651702357"><ele>9.000000000000002</ele><time>2026-04-11T05:30:34Z</time></trkpt><trkpt lat="43.31071801739409" lon="10.512980767386122"><ele>9.0</ele><time>2026-04-11T05:30:38Z</time></trkpt><trkpt lat="43.310779657838594" lon="10.512924254865883"><ele>9.0</ele><time>2026-04-11T05:30:43Z</time></trkpt><trkpt lat="43.31084251048135" lon="10.512876918789711"><ele>9.0</ele><time>2026-04-11T05:30:48Z</time></trkpt><trkpt lat="43.310900152318865" lon="10.512811858422504"><ele>9.0</ele><time>2026-04-11T05:30:53Z</time></trkpt><trkpt lat="43.31094953374536" lon="10.51274799991683"><ele>9.000000000000002</ele><time>2026-04-11T05:30:57Z</time></trkpt><trkpt lat="43.310992779741476" lon="10.512684066226553"><ele>9.0</ele><time>2026-04-11T05:31:02Z</time></trkpt><trkpt lat="43.3110321804169" lon="10.512604163748442"><ele>9.166666666666666</ele><time>2026-04-11T05:31:07Z</time></trkpt><trkpt lat="43.311073233015165" lon="10.512514696692516"><ele>9.333333333333334</ele><time>2026-04-11T05:31:12Z</time></trkpt><trkpt lat="43.311145385793" lon="10.512474500685682"><ele>9.5</ele><time>2026-04-11T05:31:16Z</time></trkpt><trkpt lat="43.311205730835624" lon="10.512417203780451"><ele>9.666666666666668</ele><time>2026-04-11T05:31:21Z</time></trkpt><trkpt lat="43.31126412541123" lon="10.512361653623625"><ele>9.833333333333334</ele><time>2026-04-11T05:31:26Z</time></trkpt><trkpt lat="43.31133437239089" lon="10.512317118430685"><ele>10.0</ele><time>2026-04-11T05:31:31Z</time></trkpt><trkpt lat="43.311406891899004" lon="10.512273430212257"><ele>9.857142857142858</ele><time>2026-04-11T05:31:36Z</time></trkpt><trkpt lat="43.31147526537051" lon="10.51222855077275"><ele>9.714285714285715</ele><time>2026-04-11T05:31:41Z</time></trkpt><trkpt lat="43.31153149034769" lon="10.512173715987382"><ele>9.571428571428573</ele><time>2026-04-11T05:31:46Z</time></trkpt><trkpt lat="43.311595980625754" lon="10.512117607933176"><ele>9.428571428571429</ele><time>2026-04-11T05:31:51Z</time></trkpt><trkpt lat="43.31165790636696" lon="10.512078507152786"><ele>9.285714285714286</ele><time>2026-04-11T05:31:55Z</time></trkpt><trkpt lat="43.311721643196" lon="10.512032562002812"><ele>9.142857142857144</ele><time>2026-04-11T05:31:59Z</time></trkpt><trkpt lat="43.31178909436922" lon="10.511982291292743"><ele>9.0</ele><time>2026-04-11T05:32:04Z</time></trkpt><trkpt lat="43.31185695507794" lon="10.511933740879357"><ele>8.714285714285715</ele><time>2026-04-11T05:32:09Z</time></trkpt><trkpt lat="43.31191897826975" lon="10.511884181038317"><ele>8.428571428571429</ele><time>2026-04-11T05:32:14Z</time></trkpt><trkpt lat="43.31198220359999" lon="10.511839061024181"><ele>8.142857142857142</ele><time>2026-04-11T05:32:19Z</time></trkpt><trkpt lat="43.31204877537991" lon="10.51178789969163"><ele>7.857142857142858</ele><time>2026-04-11T05:32:24Z</time></trkpt><trkpt lat="43.31211826713364" lon="10.511750613797842"><ele>7.571428571428571</ele><time>2026-04-11T05:32:29Z</time></trkpt><trkpt lat="43.312182750116584" lon="10.511706762890125"><ele>7.285714285714286</ele><time>2026-04-11T05:32:34Z</time></trkpt><trkpt lat="43.312250430238706" lon="10.511665694996736"><ele>7.0</ele><time>2026-04-11T05:32:39Z</time></trkpt><trkpt lat="43.312320905465405" lon="10.511624457746262"><ele>7.0</ele><time>2026-04-11T05:32:44Z</time></trkpt><trkpt lat="43.31238320535974" lon="10.511588502819441"><ele>7.0</ele><time>2026-04-11T05:32:48Z</time></trkpt><trkpt lat="43.312444716764055" lon="10.511547829804982"><ele>7.0</ele><time>2026-04-11T05:32:53Z</time></trkpt><trkpt lat="43.312512190600074" lon="10.511507055612904"><ele>7.0</ele><time>2026-04-11T05:32:58Z</time></trkpt><trkpt lat="43.31257847476541" lon="10.511456339731907"><ele>7.0</ele><time>2026-04-11T05:33:03Z</time></trkpt><trkpt lat="43.312634593532586" lon="10.511416705570353"><ele>7.0</ele><time>2026-04-11T05:33:07Z</time></trkpt><trkpt lat="43.31269594695716" lon="10.511375286740513"><ele>7.0</ele><time>2026-04-11T05:33:12Z</time></trkpt><trkpt lat="43.312759408445714" lon="10.511333271606688"><ele>7.000000000000001</ele><time>2026-04-11T05:33:17Z</time></trkpt><trkpt lat="43.3128231606024" lon="10.511292467950854"><ele>7.0</ele><time>2026-04-11T05:33:22Z</time></trkpt><trkpt lat="43.31289560521804" lon="10.511248143082437"><ele>7.0</ele><time>2026-04-11T05:33:27Z</time></trkpt><trkpt lat="43.31296048849916" lon="10.511206148657704"><ele>7.0</ele><time>2026-04-11T05:33:32Z</time></trkpt><trkpt lat="43.31302779714" lon="10.511163040189915"><ele>7.000000000000001</ele><time>2026-04-11T05:33:37Z</time></trkpt><trkpt lat="43.31309926179492" lon="10.511132302829022"><ele>7.0</ele><time>2026-04-11T05:33:42Z</time></trkpt><trkpt lat="43.313172163958264" lon="10.51108958500627"><ele>6.428571428571429</ele><time>2026-04-11T05:33:47Z</time></trkpt><trkpt lat="43.31323734446656" lon="10.511033430140781"><ele>5.857142857142857</ele><time>2026-04-11T05:33:52Z</time></trkpt><trkpt lat="43.31325197916725" lon="10.510943000042477"><ele>5.285714285714286</ele><time>2026-04-11T05:33:57Z</time></trkpt><trkpt lat="43.31321961245698" lon="10.510850004716426"><ele>4.714285714285714</ele><time>2026-04-11T05:34:02Z</time></trkpt><trkpt lat="43.313202671111256" lon="10.510757816454914"><ele>4.142857142857142</ele><time>2026-04-11T05:34:07Z</time></trkpt><trkpt lat="43.313187248018075" lon="10.510663395839913"><ele>3.571428571428571</ele><time>2026-04-11T05:34:12Z</time></trkpt><trkpt lat="43.31316902089486" lon="10.51057350448508"><ele>3.0</ele><time>2026-04-11T05:34:17Z</time></trkpt><trkpt lat="43.31315447506145" lon="10.510488417569679"><ele>2.9999999999999996</ele><time>2026-04-11T05:34:21Z</time></trkpt><trkpt lat="43.313134882591264" lon="10.510391770017948"><ele>3.0</ele><time>2026-04-11T05:34:26Z</time></trkpt><trkpt lat="43.31311564696872" lon="10.510292478122098"><ele>3.0</ele><time>2026-04-11T05:34:31Z</time></trkpt><trkpt lat="43.31309911854945" lon="10.510202194284476"><ele>3.0</ele><time>2026-04-11T05:34:35Z</time></trkpt><trkpt lat="43.31307983690614" lon="10.5101135210979"><ele>3.0</ele><time>2026-04-11T05:34:39Z</time></trkpt><trkpt lat="43.313059087570785" lon="10.510008350879046"><ele>2.9999999999999996</ele><time>2026-04-11T05:34:44Z</time></trkpt><trkpt lat="43.3130429044132" lon="10.509923616268413"><ele>3.0</ele><time>2026-04-11T05:34:48Z</time></trkpt><trkpt lat="43.31302500776637" lon="10.509832109258651"><ele>2.9999999999999996</ele><time>2026-04-11T05:34:53Z</time></trkpt><trkpt lat="43.31300779460674" lon="10.509738194179059"><ele>3.0</ele><time>2026-04-11T05:34:58Z</time></trkpt><trkpt lat="43.31298920111913" lon="10.509638767628516"><ele>3.0</ele><time>2026-04-11T05:35:03Z</time></trkpt><trkpt lat="43.3129708510324" lon="10.509543098404132"><ele>3.0</ele><time>2026-04-11T05:35:08Z</time></trkpt><trkpt lat="43.312950043392796" lon="10.509444572802042"><ele>3.0</ele><time>2026-04-11T05:35:13Z</time></trkpt><trkpt lat="43.31293368115595" lon="10.50934746155018"><ele>2.9999999999999996</ele><time>2026-04-11T05:35:18Z</time></trkpt><trkpt lat="43.31290682784402" lon="10.509250084576886"><ele>3.0</ele><time>2026-04-11T05:35:23Z</time></trkpt><trkpt lat="43.312884691514576" lon="10.50915888505509"><ele>2.9999999999999996</ele><time>2026-04-11T05:35:28Z</time></trkpt><trkpt lat="43.312860063268346" lon="10.509058493440417"><ele>3.0</ele><time>2026-04-11T05:35:33Z</time></trkpt><trkpt lat="43.31284524189645" lon="10.508964002134903"><ele>3.0</ele><time>2026-04-11T05:35:38Z</time></trkpt><trkpt lat="43.312827637504064" lon="10.508867827771494"><ele>3.0</ele><time>2026-04-11T05:35:43Z</time></trkpt><trkpt lat="43.31280915483452" lon="10.508767301477922"><ele>3.0</ele><time>2026-04-11T05:35:48Z</time></trkpt><trkpt lat="43.31279242158087" lon="10.508675543964348"><ele>2.9999999999999996</ele><time>2026-04-11T05:35:52Z</time></trkpt><trkpt lat="43.31278012327719" lon="10.508586218112095"><ele>3.0</ele><time>2026-04-11T05:35:56Z</time></trkpt><trkpt lat="43.312763915855996" lon="10.508482696289697"><ele>2.9999999999999996</ele><time>2026-04-11T05:36:01Z</time></trkpt><trkpt lat="43.31274715757041" lon="10.50838480075687"><ele>3.0</ele><time>2026-04-11T05:36:06Z</time></trkpt><trkpt lat="43.312737093995445" lon="10.508284488281571"><ele>3.0</ele><time>2026-04-11T05:36:11Z</time></trkpt><trkpt lat="43.31272804091049" lon="10.508184598223565"><ele>3.0</ele><time>2026-04-11T05:36:16Z</time></trkpt><trkpt lat="43.312718384400895" lon="10.5080798223659"><ele>3.0</ele><time>2026-04-11T05:36:21Z</time></trkpt><trkpt lat="43.31270986887871" lon="10.507984857305832"><ele>2.9999999999999996</ele><time>2026-04-11T05:36:26Z</time></trkpt><trkpt lat="43.312703746422244" lon="10.507884008214814"><ele>3.0</ele><time>2026-04-11T05:36:31Z</time></trkpt><trkpt lat="43.312700394815" lon="10.507787337744066"><ele>2.8571428571428568</ele><time>2026-04-11T05:36:36Z</time></trkpt><trkpt lat="43.312700766521935" lon="10.507674534526565"><ele>2.7142857142857144</ele><time>2026-04-11T05:36:41Z</time></trkpt><trkpt lat="43.312704832325494" lon="10.507583480561147"><ele>2.571428571428571</ele><time>2026-04-11T05:36:46Z</time></trkpt><trkpt lat="43.31270372911508" lon="10.507496915592618"><ele>2.4285714285714284</ele><time>2026-04-11T05:36:50Z</time></trkpt><trkpt lat="43.31270151858843" lon="10.507400514049056"><ele>2.2857142857142856</ele><time>2026-04-11T05:36:55Z</time></trkpt><trkpt lat="43.31270274706863" lon="10.507297379369598"><ele>2.142857142857143</ele><time>2026-04-11T05:37:00Z</time></trkpt><trkpt lat="43.312698816780205" lon="10.507209852189098"><ele>2.0</ele><time>2026-04-11T05:37:04Z</time></trkpt><trkpt lat="43.31270188518836" lon="10.507112414000588"><ele>2.0</ele><time>2026-04-11T05:37:09Z</time></trkpt><trkpt lat="43.3126987350917" lon="10.507010185192998"><ele>1.9999999999999998</ele><time>2026-04-11T05:37:14Z</time></trkpt><trkpt lat="43.312694869145595" lon="10.506913498675958"><ele>2.0</ele><time>2026-04-11T05:37:19Z</time></trkpt><trkpt lat="43.31269497739851" lon="10.506814477304667"><ele>2.0</ele><time>2026-04-11T05:37:24Z</time></trkpt><trkpt lat="43.312694122480934" lon="10.506709830314355"><ele>1.9999999999999998</ele><time>2026-04-11T05:37:29Z</time></trkpt><trkpt lat="43.312696029193546" lon="10.506609051383908"><ele>2.0</ele><time>2026-04-11T05:37:34Z</time></trkpt><trkpt lat="43.31269437980861" lon="10.506510939663004"><ele>2.0</ele><time>2026-04-11T05:37:39Z</time></trkpt><trkpt lat="43.31269439685926" lon="10.506405023679052"><ele>2.0</ele><time>2026-04-11T05:37:44Z</time></trkpt><trkpt lat="43.312703502234484" lon="10.506311735665639"><ele>1.9999999999999998</ele><time>2026-04-11T05:37:49Z</time></trkpt><trkpt lat="43.31270235202459" lon="10.506203883100158"><ele>2.0</ele><time>2026-04-11T05:37:54Z</time></trkpt><trkpt lat="43.31270237795862" lon="10.506108873092643"><ele>2.0</ele><time>2026-04-11T05:37:59Z</time></trkpt><trkpt lat="43.31269968769372" lon="10.50600505389363"><ele>1.9999999999999998</ele><time>2026-04-11T05:38:04Z</time></trkpt><trkpt lat="43.31270166159491" lon="10.505901361905904"><ele>2.0</ele><time>2026-04-11T05:38:09Z</time></trkpt><trkpt lat="43.31269884816661" lon="10.505793854300345"><ele>2.0</ele><time>2026-04-11T05:38:14Z</time></trkpt><trkpt lat="43.31269597529706" lon="10.505696611469219"><ele>2.0</ele><time>2026-04-11T05:38:19Z</time></trkpt><trkpt lat="43.31268904857982" lon="10.505594266019378"><ele>1.9999999999999998</ele><time>2026-04-11T05:38:24Z</time></trkpt><trkpt lat="43.3126809370562" lon="10.505496319641846"><ele>2.0</ele><time>2026-04-11T05:38:29Z</time></trkpt><trkpt lat="43.31267005841817" lon="10.505395778626516"><ele>2.0</ele><time>2026-04-11T05:38:34Z</time></trkpt><trkpt lat="43.31265699190904" lon="10.505296875899514"><ele>1.9999999999999998</ele><time>2026-04-11T05:38:39Z</time></trkpt><trkpt lat="43.31263922024544" lon="10.505187378753543"><ele>2.0</ele><time>2026-04-11T05:38:44Z</time></trkpt><trkpt lat="43.31261849263434" lon="10.505098736879575"><ele>2.0</ele><time>2026-04-11T05:38:49Z</time></trkpt><trkpt lat="43.3125973265217" lon="10.50500361788781"><ele>2.142857142857143</ele><time>2026-04-11T05:38:54Z</time></trkpt><trkpt lat="43.312571502080765" lon="10.504906038767782"><ele>2.2857142857142856</ele><time>2026-04-11T05:38:59Z</time></trkpt><trkpt lat="43.3125420958824" lon="10.504820343180121"><ele>2.4285714285714284</ele><time>2026-04-11T05:39:04Z</time></trkpt><trkpt lat="43.31251590180642" lon="10.504724636548364"><ele>2.571428571428571</ele><time>2026-04-11T05:39:09Z</time></trkpt><trkpt lat="43.31248362963262" lon="10.504634372813458"><ele>2.7142857142857144</ele><time>2026-04-11T05:39:14Z</time></trkpt><trkpt lat="43.312455492372926" lon="10.504547405278732"><ele>2.8571428571428568</ele><time>2026-04-11T05:39:19Z</time></trkpt><trkpt lat="43.31241938061879" lon="10.504449990728524"><ele>3.0</ele><time>2026-04-11T05:39:24Z</time></trkpt><trkpt lat="43.31238859737444" lon="10.504362518422832"><ele>3.1428571428571423</ele><time>2026-04-11T05:39:29Z</time></trkpt><trkpt lat="43.31235577126955" lon="10.504274172633254"><ele>3.2857142857142856</ele><time>2026-04-11T05:39:34Z</time></trkpt><trkpt lat="43.31232407167666" lon="10.504182701636411"><ele>3.4285714285714284</ele><time>2026-04-11T05:39:39Z</time></trkpt><trkpt lat="43.312289373427475" lon="10.504094808783158"><ele>3.571428571428571</ele><time>2026-04-11T05:39:44Z</time></trkpt><trkpt lat="43.31225997081913" lon="10.504008523422723"><ele>3.714285714285714</ele><time>2026-04-11T05:39:49Z</time></trkpt><trkpt lat="43.31223044925195" lon="10.503921515859426"><ele>3.8571428571428568</ele><time>2026-04-11T05:39:54Z</time></trkpt><trkpt lat="43.3121978870929" lon="10.503827355859563"><ele>4.0</ele><time>2026-04-11T05:39:59Z</time></trkpt><trkpt lat="43.312165112100175" lon="10.503738306506428"><ele>3.571428571428571</ele><time>2026-04-11T05:40:04Z</time></trkpt><trkpt lat="43.31213607054869" lon="10.503648887667838"><ele>3.1428571428571423</ele><time>2026-04-11T05:40:09Z</time></trkpt><trkpt lat="43.31210441984163" lon="10.503556603689983"><ele>2.714285714285714</ele><time>2026-04-11T05:40:14Z</time></trkpt><trkpt lat="43.312072229826775" lon="10.503465407935167"><ele>2.2857142857142856</ele><time>2026-04-11T05:40:19Z</time></trkpt><trkpt lat="43.312039306976956" lon="10.503373738161573"><ele>1.857142857142857</ele><time>2026-04-11T05:40:24Z</time></trkpt><trkpt lat="43.312008431922955" lon="10.503287475784141"><ele>1.4285714285714284</ele><time>2026-04-11T05:40:29Z</time></trkpt><trkpt lat="43.311980191045414" lon="10.50320066187191"><ele>1.0</ele><time>2026-04-11T05:40:34Z</time></trkpt><trkpt lat="43.31194891262657" lon="10.503113838771592"><ele>0.9999999999999999</ele><time>2026-04-11T05:40:39Z</time></trkpt><trkpt lat="43.3119130559951" lon="10.50302128771885"><ele>1.0</ele><time>2026-04-11T05:40:44Z</time></trkpt><trkpt lat="43.311876457959535" lon="10.502924317846498"><ele>1.0</ele><time>2026-04-11T05:40:49Z</time></trkpt><trkpt lat="43.31183657639434" lon="10.50284318766883"><ele>1.0</ele><time>2026-04-11T05:40:54Z</time></trkpt><trkpt lat="43.31179474107494" lon="10.502759536966213"><ele>0.9999999999999999</ele><time>2026-04-11T05:40:59Z</time></trkpt><trkpt lat="43.311747807496275" lon="10.502669055461284"><ele>1.0</ele><time>2026-04-11T05:41:04Z</time></trkpt><trkpt lat="43.311700070225896" lon="10.502594187688253"><ele>1.1428571428571428</ele><time>2026-04-11T05:41:09Z</time></trkpt><trkpt lat="43.31165245011703" lon="10.502512789840338"><ele>1.2857142857142856</ele><time>2026-04-11T05:41:14Z</time></trkpt><trkpt lat="43.31160145861165" lon="10.502445004030793"><ele>1.4285714285714284</ele><time>2026-04-11T05:41:19Z</time></trkpt><trkpt lat="43.311549616756025" lon="10.502371786636436"><ele>1.5714285714285714</ele><time>2026-04-11T05:41:24Z</time></trkpt><trkpt lat="43.311496005369726" lon="10.502301935366487"><ele>1.714285714285714</ele><time>2026-04-11T05:41:29Z</time></trkpt><trkpt lat="43.31144088454108" lon="10.50223299620826"><ele>1.857142857142857</ele><time>2026-04-11T05:41:34Z</time></trkpt><trkpt lat="43.311384841461134" lon="10.502180877468748"><ele>2.0</ele><time>2026-04-11T05:41:39Z</time></trkpt><trkpt lat="43.311329284629224" lon="10.502124083011752"><ele>2.0</ele><time>2026-04-11T05:41:44Z</time></trkpt><trkpt lat="43.311263326645175" lon="10.50207093600776"><ele>1.9999999999999998</ele><time>2026-04-11T05:41:49Z</time></trkpt><trkpt lat="43.31119886941969" lon="10.502025943722106"><ele>2.0</ele><time>2026-04-11T05:41:54Z</time></trkpt><trkpt lat="43.31113939817646" lon="10.501984293320758"><ele>2.0</ele><time>2026-04-11T05:41:59Z</time></trkpt><trkpt lat="43.311076452116176" lon="10.50194410981807"><ele>1.9999999999999998</ele><time>2026-04-11T05:42:04Z</time></trkpt><trkpt lat="43.31100735725299" lon="10.50190132390999"><ele>2.0</ele><time>2026-04-11T05:42:09Z</time></trkpt><trkpt lat="43.31094329083191" lon="10.50186417699183"><ele>2.0</ele><time>2026-04-11T05:42:14Z</time></trkpt><trkpt lat="43.310874759295814" lon="10.501821474873715"><ele>2.0</ele><time>2026-04-11T05:42:19Z</time></trkpt><trkpt lat="43.31080651778353" lon="10.501785244100232"><ele>1.9999999999999998</ele><time>2026-04-11T05:42:24Z</time></trkpt><trkpt lat="43.31074680572622" lon="10.501752070464642"><ele>2.0</ele><time>2026-04-11T05:42:28Z</time></trkpt><trkpt lat="43.31068058626963" lon="10.501716235347052"><ele>2.0</ele><time>2026-04-11T05:42:33Z</time></trkpt><trkpt lat="43.31060505406873" lon="10.50167839932682"><ele>1.9999999999999998</ele><time>2026-04-11T05:42:38Z</time></trkpt><trkpt lat="43.31054064143605" lon="10.501645590211645"><ele>2.0</ele><time>2026-04-11T05:42:43Z</time></trkpt><trkpt lat="43.31047435607786" lon="10.501604522240648"><ele>2.0</ele><time>2026-04-11T05:42:48Z</time></trkpt><trkpt lat="43.3104137997817" lon="10.50156588424268"><ele>1.857142857142857</ele><time>2026-04-11T05:42:53Z</time></trkpt><trkpt lat="43.31035066012638" lon="10.501525555546202"><ele>1.714285714285714</ele><time>2026-04-11T05:42:58Z</time></trkpt><trkpt lat="43.3102807269751" lon="10.501485899130309"><ele>1.5714285714285714</ele><time>2026-04-11T05:43:03Z</time></trkpt><trkpt lat="43.31021252192985" lon="10.501452558048594"><ele>1.4285714285714284</ele><time>2026-04-11T05:43:08Z</time></trkpt><trkpt lat="43.3101483026339" lon="10.501414219059965"><ele>1.2857142857142856</ele><time>2026-04-11T05:43:13Z</time></trkpt><trkpt lat="43.310087732722096" lon="10.501377075254393"><ele>1.1428571428571428</ele><time>2026-04-11T05:43:18Z</time></trkpt><trkpt lat="43.31002088788865" lon="10.501341642357556"><ele>1.0</ele><time>2026-04-11T05:43:23Z</time></trkpt><trkpt lat="43.30995566178518" lon="10.501304180049832"><ele>1.0</ele><time>2026-04-11T05:43:28Z</time></trkpt><trkpt lat="43.309885914933446" lon="10.501262508661158"><ele>0.9999999999999999</ele><time>2026-04-11T05:43:33Z</time></trkpt><trkpt lat="43.30981998543332" lon="10.501230642988789"><ele>1.0</ele><time>2026-04-11T05:43:38Z</time></trkpt><trkpt lat="43.30975047300378" lon="10.501192762510245"><ele>1.0</ele><time>2026-04-11T05:43:43Z</time></trkpt><trkpt lat="43.30968392163626" lon="10.501155020168657"><ele>0.9999999999999999</ele><time>2026-04-11T05:43:48Z</time></trkpt><trkpt lat="43.30961954784227" lon="10.501123804787472"><ele>1.0</ele><time>2026-04-11T05:43:53Z</time></trkpt><trkpt lat="43.30955212610535" lon="10.501088880042904"><ele>1.0</ele><time>2026-04-11T05:43:58Z</time></trkpt><trkpt lat="43.30948052467883" lon="10.501052538572749"><ele>1.0</ele><time>2026-04-11T05:44:03Z</time></trkpt><trkpt lat="43.30941870814713" lon="10.501013635492857"><ele>0.9999999999999999</ele><time>2026-04-11T05:44:08Z</time></trkpt><trkpt lat="43.30934975284771" lon="10.500978408179098"><ele>1.0</ele><time>2026-04-11T05:44:13Z</time></trkpt><trkpt lat="43.309281926271126" lon="10.500942145657945"><ele>1.0</ele><time>2026-04-11T05:44:18Z</time></trkpt><trkpt lat="43.30921291857665" lon="10.500904784958568"><ele>0.9999999999999999</ele><time>2026-04-11T05:44:23Z</time></trkpt><trkpt lat="43.30914134705243" lon="10.500869083059497"><ele>1.0</ele><time>2026-04-11T05:44:28Z</time></trkpt><trkpt lat="43.30907663936776" lon="10.500832598644667"><ele>1.0</ele><time>2026-04-11T05:44:33Z</time></trkpt><trkpt lat="43.3090090725177" lon="10.500790658838104"><ele>1.0</ele><time>2026-04-11T05:44:38Z</time></trkpt><trkpt lat="43.3089423271464" lon="10.500755217560844"><ele>0.9999999999999999</ele><time>2026-04-11T05:44:43Z</time></trkpt><trkpt lat="43.30887861439799" lon="10.500718786568605"><ele>1.0</ele><time>2026-04-11T05:44:48Z</time></trkpt><trkpt lat="43.308806985403216" lon="10.500672057805431"><ele>1.0</ele><time>2026-04-11T05:44:53Z</time></trkpt><trkpt lat="43.308741167930854" lon="10.500628966152927"><ele>0.9999999999999999</ele><time>2026-04-11T05:44:58Z</time></trkpt><trkpt lat="43.3086781971767" lon="10.500593865762388"><ele>1.0</ele><time>2026-04-11T05:45:03Z</time></trkpt><trkpt lat="43.30860900023619" lon="10.500550046787232"><ele>1.0</ele><time>2026-04-11T05:45:08Z</time></trkpt><trkpt lat="43.30854409149786" lon="10.500501070723244"><ele>1.0</ele><time>2026-04-11T05:45:13Z</time></trkpt><trkpt lat="43.308481815486886" lon="10.500455776582683"><ele>0.9999999999999999</ele><time>2026-04-11T05:45:18Z</time></trkpt><trkpt lat="43.308414716125675" lon="10.500410248642808"><ele>1.0</ele><time>2026-04-11T05:45:23Z</time></trkpt><trkpt lat="43.30835407356366" lon="10.500365359395794"><ele>1.0</ele><time>2026-04-11T05:45:28Z</time></trkpt><trkpt lat="43.30828957272464" lon="10.50031706742328"><ele>0.9999999999999999</ele><time>2026-04-11T05:45:33Z</time></trkpt><trkpt lat="43.30822129017807" lon="10.500267583126687"><ele>1.0</ele><time>2026-04-11T05:45:38Z</time></trkpt><trkpt lat="43.308161202064944" lon="10.500214425567162"><ele>1.0</ele><time>2026-04-11T05:45:43Z</time></trkpt><trkpt lat="43.30809820152935" lon="10.500161031769498"><ele>1.0</ele><time>2026-04-11T05:45:48Z</time></trkpt><trkpt lat="43.308039002142905" lon="10.500108671376685"><ele>0.9999999999999999</ele><time>2026-04-11T05:45:53Z</time></trkpt><trkpt lat="43.30797206634788" lon="10.500059899623542"><ele>1.0</ele><time>2026-04-11T05:45:58Z</time></trkpt><trkpt lat="43.30790779643925" lon="10.50000646986903"><ele>1.0</ele><time>2026-04-11T05:46:03Z</time></trkpt><trkpt lat="43.30784987042009" lon="10.499955671764404"><ele>0.9999999999999999</ele><time>2026-04-11T05:46:07Z</time></trkpt><trkpt lat="43.307784585619586" lon="10.499897550599416"><ele>1.0</ele><time>2026-04-11T05:46:12Z</time></trkpt><trkpt lat="43.30772278437847" lon="10.499846539275719"><ele>1.0</ele><time>2026-04-11T05:46:17Z</time></trkpt><trkpt lat="43.30766104940517" lon="10.499793198093295"><ele>1.0</ele><time>2026-04-11T05:46:22Z</time></trkpt><trkpt lat="43.307597514919486" lon="10.499739148136078"><ele>0.9999999999999999</ele><time>2026-04-11T05:46:27Z</time></trkpt><trkpt lat="43.30753748018481" lon="10.499684130366587"><ele>1.0</ele><time>2026-04-11T05:46:32Z</time></trkpt><trkpt lat="43.307476878372846" lon="10.499632934878454"><ele>1.0</ele><time>2026-04-11T05:46:37Z</time></trkpt><trkpt lat="43.30741948045663" lon="10.499583856782722"><ele>0.9999999999999999</ele><time>2026-04-11T05:46:42Z</time></trkpt><trkpt lat="43.30736134400664" lon="10.499527093534578"><ele>1.0</ele><time>2026-04-11T05:46:47Z</time></trkpt><trkpt lat="43.307294211580256" lon="10.499474108311968"><ele>1.0</ele><time>2026-04-11T05:46:52Z</time></trkpt><trkpt lat="43.30723762747215" lon="10.49942624287393"><ele>1.0</ele><time>2026-04-11T05:46:57Z</time></trkpt><trkpt lat="43.30717280068651" lon="10.499385077743424"><ele>0.9999999999999999</ele><time>2026-04-11T05:47:03Z</time></trkpt><trkpt lat="43.30711272679601" lon="10.49933410850556"><ele>1.0</ele><time>2026-04-11T05:47:08Z</time></trkpt><trkpt lat="43.30704738251137" lon="10.499278164432853"><ele>1.0</ele><time>2026-04-11T05:47:13Z</time></trkpt><trkpt lat="43.30699386790572" lon="10.499231264516968"><ele>0.9999999999999999</ele><time>2026-04-11T05:47:17Z</time></trkpt><trkpt lat="43.3069318671974" lon="10.49916482594088"><ele>1.0</ele><time>2026-04-11T05:47:22Z</time></trkpt><trkpt lat="43.30687663756002" lon="10.499114144275321"><ele>1.0</ele><time>2026-04-11T05:47:26Z</time></trkpt><trkpt lat="43.30681383812076" lon="10.499062518317826"><ele>1.0</ele><time>2026-04-11T05:47:31Z</time></trkpt><trkpt lat="43.306750734298404" lon="10.499005681185995"><ele>0.9999999999999999</ele><time>2026-04-11T05:47:36Z</time></trkpt><trkpt lat="43.30669625514825" lon="10.498957269248315"><ele>1.0</ele><time>2026-04-11T05:47:40Z</time></trkpt><trkpt lat="43.30663779068529" lon="10.498905901648"><ele>1.0</ele><time>2026-04-11T05:47:45Z</time></trkpt><trkpt lat="43.306578358973574" lon="10.498854985014086"><ele>0.9999999999999999</ele><time>2026-04-11T05:47:50Z</time></trkpt><trkpt lat="43.3065192111524" lon="10.498799878574308"><ele>1.0</ele><time>2026-04-11T05:47:55Z</time></trkpt><trkpt lat="43.30645835840906" lon="10.498751183455202"><ele>1.0</ele><time>2026-04-11T05:48:00Z</time></trkpt><trkpt lat="43.30639685307142" lon="10.498693535054553"><ele>1.2857142857142856</ele><time>2026-04-11T05:48:05Z</time></trkpt><trkpt lat="43.306342776865904" lon="10.498647441744614"><ele>1.5714285714285712</ele><time>2026-04-11T05:48:09Z</time></trkpt><trkpt lat="43.306284791714084" lon="10.498592385680949"><ele>1.857142857142857</ele><time>2026-04-11T05:48:14Z</time></trkpt><trkpt lat="43.3062213286499" lon="10.498534862972324"><ele>2.142857142857143</ele><time>2026-04-11T05:48:19Z</time></trkpt><trkpt lat="43.30615555190951" lon="10.498481648337904"><ele>2.4285714285714284</ele><time>2026-04-11T05:48:24Z</time></trkpt><trkpt lat="43.30610004945613" lon="10.498427526307243"><ele>2.714285714285714</ele><time>2026-04-11T05:48:29Z</time></trkpt><trkpt lat="43.306037160844504" lon="10.498373471523765"><ele>3.0</ele><time>2026-04-11T05:48:34Z</time></trkpt><trkpt lat="43.305973054935386" lon="10.498315410809667"><ele>2.9999999999999996</ele><time>2026-04-11T05:48:39Z</time></trkpt><trkpt lat="43.30591503141258" lon="10.498264613664755"><ele>3.0</ele><time>2026-04-11T05:48:44Z</time></trkpt><trkpt lat="43.305854686088054" lon="10.498209531056975"><ele>3.0</ele><time>2026-04-11T05:48:49Z</time></trkpt><trkpt lat="43.305800295320836" lon="10.4981623418587"><ele>3.0</ele><time>2026-04-11T05:48:53Z</time></trkpt><trkpt lat="43.30574595607735" lon="10.498118079045787"><ele>3.0</ele><time>2026-04-11T05:48:57Z</time></trkpt><trkpt lat="43.30567845188735" lon="10.498082869464426"><ele>2.9999999999999996</ele><time>2026-04-11T05:49:02Z</time></trkpt><trkpt lat="43.30562344252845" lon="10.498029747928031"><ele>3.0</ele><time>2026-04-11T05:49:07Z</time></trkpt><trkpt lat="43.305567812615806" lon="10.49797569879558"><ele>2.9999999999999996</ele><time>2026-04-11T05:49:11Z</time></trkpt><trkpt lat="43.30551364547487" lon="10.497927214277366"><ele>3.0</ele><time>2026-04-11T05:49:15Z</time></trkpt><trkpt lat="43.30546002330728" lon="10.497877202043144"><ele>3.0</ele><time>2026-04-11T05:49:19Z</time></trkpt><trkpt lat="43.30540725900558" lon="10.497824796160419"><ele>3.0</ele><time>2026-04-11T05:49:23Z</time></trkpt><trkpt lat="43.30534736893664" lon="10.497775473251394"><ele>3.0</ele><time>2026-04-11T05:49:28Z</time></trkpt><trkpt lat="43.30528636894068" lon="10.497724158483344"><ele>2.9999999999999996</ele><time>2026-04-11T05:49:33Z</time></trkpt><trkpt lat="43.30522342637207" lon="10.497671579415865"><ele>3.0</ele><time>2026-04-11T05:49:38Z</time></trkpt><trkpt lat="43.305157693028754" lon="10.497614971180123"><ele>2.8571428571428568</ele><time>2026-04-11T05:49:43Z</time></trkpt><trkpt lat="43.30510333156391" lon="10.497561205573184"><ele>2.7142857142857144</ele><time>2026-04-11T05:49:47Z</time></trkpt><trkpt lat="43.305041594430236" lon="10.497495101817838"><ele>2.571428571428571</ele><time>2026-04-11T05:49:52Z</time></trkpt><trkpt lat="43.30497998876652" lon="10.497436128620263"><ele>2.4285714285714284</ele><time>2026-04-11T05:49:57Z</time></trkpt><trkpt lat="43.30491797900132" lon="10.497378064194423"><ele>2.2857142857142856</ele><time>2026-04-11T05:50:02Z</time></trkpt><trkpt lat="43.304861745116575" lon="10.497323833529208"><ele>2.142857142857143</ele><time>2026-04-11T05:50:07Z</time></trkpt><trkpt lat="43.30480413031612" lon="10.4972594162787"><ele>2.0</ele><time>2026-04-11T05:50:12Z</time></trkpt><trkpt lat="43.30475294923221" lon="10.497204697615265"><ele>2.2857142857142856</ele><time>2026-04-11T05:50:16Z</time></trkpt><trkpt lat="43.30469350122569" lon="10.497140782027508"><ele>2.571428571428571</ele><time>2026-04-11T05:50:21Z</time></trkpt><trkpt lat="43.304643687408415" lon="10.497085090844918"><ele>2.8571428571428568</ele><time>2026-04-11T05:50:25Z</time></trkpt><trkpt lat="43.30458774241516" lon="10.497021728935799"><ele>3.142857142857143</ele><time>2026-04-11T05:50:30Z</time></trkpt><trkpt lat="43.304536759399824" lon="10.496957813603684"><ele>3.428571428571428</ele><time>2026-04-11T05:50:35Z</time></trkpt><trkpt lat="43.30448610960368" lon="10.49688454544885"><ele>3.714285714285714</ele><time>2026-04-11T05:50:41Z</time></trkpt><trkpt lat="43.304431320539095" lon="10.496814099331017"><ele>4.0</ele><time>2026-04-11T05:50:46Z</time></trkpt><trkpt lat="43.30438700541287" lon="10.496748544526184"><ele>4.0</ele><time>2026-04-11T05:50:50Z</time></trkpt><trkpt lat="43.30433509554713" lon="10.496676688557551"><ele>3.9999999999999996</ele><time>2026-04-11T05:50:55Z</time></trkpt><trkpt lat="43.30428802613547" lon="10.49661716417832"><ele>4.0</ele><time>2026-04-11T05:50:59Z</time></trkpt><trkpt lat="43.30424043556251" lon="10.496547131727075"><ele>4.0</ele><time>2026-04-11T05:51:04Z</time></trkpt><trkpt lat="43.30419138884699" lon="10.496472048121426"><ele>3.9999999999999996</ele><time>2026-04-11T05:51:09Z</time></trkpt><trkpt lat="43.304141185392915" lon="10.496394650882516"><ele>4.0</ele><time>2026-04-11T05:51:15Z</time></trkpt><trkpt lat="43.30409407109115" lon="10.496317798890972"><ele>4.0</ele><time>2026-04-11T05:51:20Z</time></trkpt><trkpt lat="43.30405899698702" lon="10.49624127574986"><ele>4.0</ele><time>2026-04-11T05:51:25Z</time></trkpt><trkpt lat="43.30401811419523" lon="10.496167583239782"><ele>3.9999999999999996</ele><time>2026-04-11T05:51:29Z</time></trkpt><trkpt lat="43.30397346050528" lon="10.496089824381105"><ele>4.0</ele><time>2026-04-11T05:51:34Z</time></trkpt><trkpt lat="43.303936242833984" lon="10.496012619097014"><ele>4.0</ele><time>2026-04-11T05:51:38Z</time></trkpt><trkpt lat="43.30390143750287" lon="10.495935905058287"><ele>3.9999999999999996</ele><time>2026-04-11T05:51:42Z</time></trkpt><trkpt lat="43.303860295589914" lon="10.495850255574279"><ele>4.0</ele><time>2026-04-11T05:51:47Z</time></trkpt><trkpt lat="43.30382652436733" lon="10.495774507131928"><ele>4.0</ele><time>2026-04-11T05:51:51Z</time></trkpt><trkpt lat="43.30379231163838" lon="10.495695276369753"><ele>4.0</ele><time>2026-04-11T05:51:56Z</time></trkpt><trkpt lat="43.30375669756668" lon="10.495603436532662"><ele>3.9999999999999996</ele><time>2026-04-11T05:52:01Z</time></trkpt><trkpt lat="43.303714469688366" lon="10.495512483063717"><ele>4.0</ele><time>2026-04-11T05:52:06Z</time></trkpt><trkpt lat="43.30367646517055" lon="10.49542273058966"><ele>4.0</ele><time>2026-04-11T05:52:11Z</time></trkpt><trkpt lat="43.30364517507271" lon="10.495345656066787"><ele>3.9999999999999996</ele><time>2026-04-11T05:52:15Z</time></trkpt><trkpt lat="43.30361878994008" lon="10.495266364682314"><ele>4.0</ele><time>2026-04-11T05:52:19Z</time></trkpt><trkpt lat="43.30359142589644" lon="10.49518407366673"><ele>4.0</ele><time>2026-04-11T05:52:23Z</time></trkpt><trkpt lat="43.30356161648313" lon="10.495088058152925"><ele>3.8571428571428568</ele><time>2026-04-11T05:52:28Z</time></trkpt><trkpt lat="43.303537824789686" lon="10.494995433235005"><ele>3.714285714285714</ele><time>2026-04-11T05:52:33Z</time></trkpt><trkpt lat="43.303514363631116" lon="10.494900329756437"><ele>3.571428571428571</ele><time>2026-04-11T05:52:38Z</time></trkpt><trkpt lat="43.30350052030733" lon="10.494812886207605"><ele>3.4285714285714284</ele><time>2026-04-11T05:52:42Z</time></trkpt><trkpt lat="43.30347662117662" lon="10.494712989693983"><ele>3.2857142857142856</ele><time>2026-04-11T05:52:47Z</time></trkpt><trkpt lat="43.303457953685324" lon="10.494615989644963"><ele>3.1428571428571423</ele><time>2026-04-11T05:52:52Z</time></trkpt><trkpt lat="43.30344047888181" lon="10.49451374150368"><ele>3.0</ele><time>2026-04-11T05:52:57Z</time></trkpt><trkpt lat="43.3034166544728" lon="10.494419642730932"><ele>2.8571428571428568</ele><time>2026-04-11T05:53:02Z</time></trkpt><trkpt lat="43.30340009636612" lon="10.494336004068696"><ele>2.7142857142857144</ele><time>2026-04-11T05:53:06Z</time></trkpt><trkpt lat="43.303382015013675" lon="10.494244242138066"><ele>2.571428571428571</ele><time>2026-04-11T05:53:11Z</time></trkpt><trkpt lat="43.30335861182939" lon="10.494160335494756"><ele>2.4285714285714284</ele><time>2026-04-11T05:53:15Z</time></trkpt><trkpt lat="43.30334223326413" lon="10.494066859334053"><ele>2.2857142857142856</ele><time>2026-04-11T05:53:20Z</time></trkpt><trkpt lat="43.303323651454015" lon="10.493968842430515"><ele>2.142857142857143</ele><time>2026-04-11T05:53:25Z</time></trkpt><trkpt lat="43.30331995831969" lon="10.493878355191834"><ele>2.0</ele><time>2026-04-11T05:53:31Z</time></trkpt><trkpt lat="43.303371082359035" lon="10.49380157302393"><ele>1.857142857142857</ele><time>2026-04-11T05:53:36Z</time></trkpt><trkpt lat="43.30342432834157" lon="10.493735931470178"><ele>1.714285714285714</ele><time>2026-04-11T05:53:41Z</time></trkpt><trkpt lat="43.303482271139266" lon="10.493673091275298"><ele>1.5714285714285714</ele><time>2026-04-11T05:53:46Z</time></trkpt><trkpt lat="43.30354390063817" lon="10.493616627571999"><ele>1.4285714285714284</ele><time>2026-04-11T05:53:51Z</time></trkpt><trkpt lat="43.30360854636588" lon="10.493554816618063"><ele>1.2857142857142856</ele><time>2026-04-11T05:53:56Z</time></trkpt><trkpt lat="43.30366416003465" lon="10.493501851331816"><ele>1.1428571428571428</ele><time>2026-04-11T05:54:01Z</time></trkpt><trkpt lat="43.30372359700598" lon="10.493457661834354"><ele>1.0</ele><time>2026-04-11T05:54:06Z</time></trkpt><trkpt lat="43.3037892393624" lon="10.493410869170768"><ele>1.0</ele><time>2026-04-11T05:54:12Z</time></trkpt><trkpt lat="43.30384748902561" lon="10.493364989230175"><ele>0.9999999999999999</ele><time>2026-04-11T05:54:17Z</time></trkpt><trkpt lat="43.303909488447026" lon="10.49331449998041"><ele>1.0</ele><time>2026-04-11T05:54:22Z</time></trkpt><trkpt lat="43.30396748767294" lon="10.493269420495524"><ele>1.0</ele><time>2026-04-11T05:54:27Z</time></trkpt><trkpt lat="43.30403267002452" lon="10.493209947576254"><ele>0.9999999999999999</ele><time>2026-04-11T05:54:32Z</time></trkpt><trkpt lat="43.30409265727361" lon="10.493159088330593"><ele>1.0</ele><time>2026-04-11T05:54:37Z</time></trkpt><trkpt lat="43.30415117731887" lon="10.493114311515376"><ele>1.0</ele><time>2026-04-11T05:54:42Z</time></trkpt><trkpt lat="43.304206757725815" lon="10.493069196019583"><ele>0.8571428571428571</ele><time>2026-04-11T05:54:47Z</time></trkpt><trkpt lat="43.3042673549956" lon="10.493013773286469"><ele>0.7142857142857142</ele><time>2026-04-11T05:54:52Z</time></trkpt><trkpt lat="43.30432279938593" lon="10.492972039443336"><ele>0.5714285714285714</ele><time>2026-04-11T05:54:57Z</time></trkpt><trkpt lat="43.304383168528304" lon="10.4929270396901"><ele>0.42857142857142855</ele><time>2026-04-11T05:55:02Z</time></trkpt><trkpt lat="43.30445400548851" lon="10.492870476798506"><ele>0.2857142857142857</ele><time>2026-04-11T05:55:07Z</time></trkpt><trkpt lat="43.30451304708823" lon="10.492819917948202"><ele>0.14285714285714285</ele><time>2026-04-11T05:55:12Z</time></trkpt><trkpt lat="43.304572527078086" lon="10.492764772511162"><ele>0.0</ele><time>2026-04-11T05:55:17Z</time></trkpt><trkpt lat="43.30464046501881" lon="10.492733991565563"><ele>0.0</ele><time>2026-04-11T05:55:22Z</time></trkpt><trkpt lat="43.304703406120026" lon="10.49268323430826"><ele>0.0</ele><time>2026-04-11T05:55:27Z</time></trkpt><trkpt lat="43.30476295398635" lon="10.492630895213319"><ele>0.0</ele><time>2026-04-11T05:55:32Z</time></trkpt><trkpt lat="43.304824024340384" lon="10.492578458218523"><ele>0.0</ele><time>2026-04-11T05:55:37Z</time></trkpt><trkpt lat="43.30488533097274" lon="10.492521256071784"><ele>0.0</ele><time>2026-04-11T05:55:42Z</time></trkpt><trkpt lat="43.304943035916615" lon="10.492462648983562"><ele>0.0</ele><time>2026-04-11T05:55:47Z</time></trkpt><trkpt lat="43.30500980230053" lon="10.492407877975994"><ele>0.0</ele><time>2026-04-11T05:55:52Z</time></trkpt><trkpt lat="43.30507384329578" lon="10.49235165771187"><ele>0.0</ele><time>2026-04-11T05:55:57Z</time></trkpt><trkpt lat="43.305125884045445" lon="10.492302690838942"><ele>0.0</ele><time>2026-04-11T05:56:01Z</time></trkpt><trkpt lat="43.305189546813104" lon="10.492241068588774"><ele>0.0</ele><time>2026-04-11T05:56:06Z</time></trkpt><trkpt lat="43.30524852361293" lon="10.492187314368614"><ele>0.0</ele><time>2026-04-11T05:56:11Z</time></trkpt><trkpt lat="43.30531202422951" lon="10.492131096121739"><ele>0.0</ele><time>2026-04-11T05:56:16Z</time></trkpt><trkpt lat="43.30537283644965" lon="10.492070861219261"><ele>0.0</ele><time>2026-04-11T05:56:21Z</time></trkpt><trkpt lat="43.30542767166485" lon="10.492020454779542"><ele>0.0</ele><time>2026-04-11T05:56:25Z</time></trkpt><trkpt lat="43.305490743469726" lon="10.491965227486405"><ele>0.0</ele><time>2026-04-11T05:56:30Z</time></trkpt><trkpt lat="43.305549581055345" lon="10.491921563464487"><ele>0.0</ele><time>2026-04-11T05:56:35Z</time></trkpt><trkpt lat="43.3056009289884" lon="10.491869860894049"><ele>0.0</ele><time>2026-04-11T05:56:40Z</time></trkpt><trkpt lat="43.305656681080656" lon="10.491818615200227"><ele>0.0</ele><time>2026-04-11T05:56:45Z</time></trkpt><trkpt lat="43.30570925082769" lon="10.49176454811329"><ele>0.0</ele><time>2026-04-11T05:56:49Z</time></trkpt><trkpt lat="43.30577669065493" lon="10.4917131857189"><ele>0.0</ele><time>2026-04-11T05:56:54Z</time></trkpt><trkpt lat="43.30583910184765" lon="10.49167151331102"><ele>0.0</ele><time>2026-04-11T05:56:59Z</time></trkpt><trkpt lat="43.30589952527849" lon="10.49162758231192"><ele>0.14285714285714285</ele><time>2026-04-11T05:57:04Z</time></trkpt><trkpt lat="43.30595855044461" lon="10.491573610409024"><ele>0.2857142857142857</ele><time>2026-04-11T05:57:09Z</time></trkpt><trkpt lat="43.306015020916476" lon="10.491527201292353"><ele>0.42857142857142855</ele><time>2026-04-11T05:57:14Z</time></trkpt><trkpt lat="43.306073299560694" lon="10.49146854297218"><ele>0.5714285714285714</ele><time>2026-04-11T05:57:19Z</time></trkpt><trkpt lat="43.306130340676525" lon="10.491413142721376"><ele>0.7142857142857142</ele><time>2026-04-11T05:57:24Z</time></trkpt><trkpt lat="43.30619134314949" lon="10.491361435606583"><ele>0.8571428571428571</ele><time>2026-04-11T05:57:29Z</time></trkpt><trkpt lat="43.306251102061886" lon="10.49130149314226"><ele>1.0</ele><time>2026-04-11T05:57:34Z</time></trkpt><trkpt lat="43.30630331522441" lon="10.4912515278456"><ele>1.1428571428571428</ele><time>2026-04-11T05:57:39Z</time></trkpt><trkpt lat="43.30636130745619" lon="10.491199141971203"><ele>1.2857142857142856</ele><time>2026-04-11T05:57:44Z</time></trkpt><trkpt lat="43.30642047940074" lon="10.491152222172914"><ele>1.4285714285714284</ele><time>2026-04-11T05:57:49Z</time></trkpt><trkpt lat="43.306476634761374" lon="10.491102514189413"><ele>1.5714285714285714</ele><time>2026-04-11T05:57:54Z</time></trkpt><trkpt lat="43.30653934902278" lon="10.49104609752816"><ele>1.714285714285714</ele><time>2026-04-11T05:57:59Z</time></trkpt><trkpt lat="43.3065950429728" lon="10.490993167727803"><ele>1.857142857142857</ele><time>2026-04-11T05:58:04Z</time></trkpt><trkpt lat="43.30665568191577" lon="10.490942904122182"><ele>2.0</ele><time>2026-04-11T05:58:09Z</time></trkpt><trkpt lat="43.306712927969976" lon="10.490894593541142"><ele>2.142857142857143</ele><time>2026-04-11T05:58:14Z</time></trkpt><trkpt lat="43.306770226316935" lon="10.490838369279828"><ele>2.2857142857142856</ele><time>2026-04-11T05:58:19Z</time></trkpt><trkpt lat="43.306831645470076" lon="10.490789076470094"><ele>2.4285714285714284</ele><time>2026-04-11T05:58:24Z</time></trkpt><trkpt lat="43.30688986944837" lon="10.490733383645068"><ele>2.571428571428571</ele><time>2026-04-11T05:58:29Z</time></trkpt><trkpt lat="43.30694601175114" lon="10.490684471994713"><ele>2.7142857142857144</ele><time>2026-04-11T05:58:34Z</time></trkpt><trkpt lat="43.307005682913214" lon="10.49063121398825"><ele>2.8571428571428568</ele><time>2026-04-11T05:58:39Z</time></trkpt><trkpt lat="43.30706515528196" lon="10.490578765445079"><ele>3.0</ele><time>2026-04-11T05:58:44Z</time></trkpt><trkpt lat="43.30711541715369" lon="10.490525415922205"><ele>2.9999999999999996</ele><time>2026-04-11T05:58:48Z</time></trkpt><trkpt lat="43.3071744878123" lon="10.49047222942725"><ele>3.0</ele><time>2026-04-11T05:58:53Z</time></trkpt><trkpt lat="43.30724179387747" lon="10.490420026162798"><ele>3.0</ele><time>2026-04-11T05:58:58Z</time></trkpt><trkpt lat="43.30729662692688" lon="10.490367163800439"><ele>3.0</ele><time>2026-04-11T05:59:03Z</time></trkpt><trkpt lat="43.307359704293354" lon="10.490307539843396"><ele>3.0</ele><time>2026-04-11T05:59:08Z</time></trkpt><trkpt lat="43.30741900526767" lon="10.49025288029379"><ele>2.9999999999999996</ele><time>2026-04-11T05:59:13Z</time></trkpt><trkpt lat="43.30748382959909" lon="10.490205200134987"><ele>3.0</ele><time>2026-04-11T05:59:18Z</time></trkpt><trkpt lat="43.307543850894824" lon="10.490153245426246"><ele>3.1428571428571423</ele><time>2026-04-11T05:59:23Z</time></trkpt><trkpt lat="43.307604289667864" lon="10.49009648674084"><ele>3.2857142857142856</ele><time>2026-04-11T05:59:28Z</time></trkpt><trkpt lat="43.307666543329" lon="10.490044939351122"><ele>3.4285714285714284</ele><time>2026-04-11T05:59:33Z</time></trkpt><trkpt lat="43.307723214492334" lon="10.489989610079258"><ele>3.571428571428571</ele><time>2026-04-11T05:59:38Z</time></trkpt><trkpt lat="43.30778383175894" lon="10.489933021417318"><ele>3.714285714285714</ele><time>2026-04-11T05:59:43Z</time></trkpt><trkpt lat="43.30784547610154" lon="10.489869742886976"><ele>3.8571428571428568</ele><time>2026-04-11T05:59:48Z</time></trkpt><trkpt lat="43.30790976547256" lon="10.48981539102911"><ele>4.0</ele><time>2026-04-11T05:59:53Z</time></trkpt><trkpt lat="43.30796802680212" lon="10.489759752372356"><ele>4.0</ele><time>2026-04-11T05:59:58Z</time></trkpt><trkpt lat="43.308030672216304" lon="10.489706835496285"><ele>3.9999999999999996</ele><time>2026-04-11T06:00:03Z</time></trkpt><trkpt lat="43.30808875635577" lon="10.489657839558072"><ele>4.0</ele><time>2026-04-11T06:00:08Z</time></trkpt><trkpt lat="43.308145893349845" lon="10.489604367012276"><ele>4.0</ele><time>2026-04-11T06:00:13Z</time></trkpt><trkpt lat="43.308208998250116" lon="10.489544870196484"><ele>3.9999999999999996</ele><time>2026-04-11T06:00:18Z</time></trkpt><trkpt lat="43.30826665288447" lon="10.489501364004456"><ele>4.0</ele><time>2026-04-11T06:00:23Z</time></trkpt><trkpt lat="43.30832598237503" lon="10.48945394161833"><ele>4.0</ele><time>2026-04-11T06:00:28Z</time></trkpt><trkpt lat="43.308384363024295" lon="10.48940350504295"><ele>3.571428571428571</ele><time>2026-04-11T06:00:33Z</time></trkpt><trkpt lat="43.30844856531398" lon="10.489353142184795"><ele>3.1428571428571423</ele><time>2026-04-11T06:00:38Z</time></trkpt><trkpt lat="43.30850783105111" lon="10.489300309483681"><ele>2.714285714285714</ele><time>2026-04-11T06:00:43Z</time></trkpt><trkpt lat="43.30857704840052" lon="10.489248358543687"><ele>2.2857142857142856</ele><time>2026-04-11T06:00:48Z</time></trkpt><trkpt lat="43.30863527331611" lon="10.489194569467347"><ele>1.857142857142857</ele><time>2026-04-11T06:00:53Z</time></trkpt><trkpt lat="43.30868451083741" lon="10.489129802496953"><ele>1.4285714285714284</ele><time>2026-04-11T06:00:57Z</time></trkpt><trkpt lat="43.30873523097421" lon="10.489075546747902"><ele>1.0</ele><time>2026-04-11T06:01:02Z</time></trkpt><trkpt lat="43.308796968869295" lon="10.489022516361487"><ele>1.0</ele><time>2026-04-11T06:01:07Z</time></trkpt><trkpt lat="43.30885314290661" lon="10.488967624629526"><ele>0.9999999999999999</ele><time>2026-04-11T06:01:12Z</time></trkpt><trkpt lat="43.30891368135111" lon="10.488917974122003"><ele>1.0</ele><time>2026-04-11T06:01:17Z</time></trkpt><trkpt lat="43.30896524177024" lon="10.488843880691595"><ele>1.0</ele><time>2026-04-11T06:01:22Z</time></trkpt><trkpt lat="43.3090214842156" lon="10.488798044264101"><ele>0.9999999999999999</ele><time>2026-04-11T06:01:27Z</time></trkpt><trkpt lat="43.309079836628776" lon="10.48875294413155"><ele>1.0</ele><time>2026-04-11T06:01:32Z</time></trkpt><trkpt lat="43.309140645549704" lon="10.488710762340618"><ele>1.0</ele><time>2026-04-11T06:01:37Z</time></trkpt><trkpt lat="43.309200778791705" lon="10.48865335590984"><ele>0.8571428571428571</ele><time>2026-04-11T06:01:42Z</time></trkpt><trkpt lat="43.30925768497148" lon="10.48859190058719"><ele>0.7142857142857142</ele><time>2026-04-11T06:01:47Z</time></trkpt><trkpt lat="43.309318372167134" lon="10.488543490858689"><ele>0.5714285714285714</ele><time>2026-04-11T06:01:52Z</time></trkpt><trkpt lat="43.30937803661869" lon="10.488494334161922"><ele>0.42857142857142855</ele><time>2026-04-11T06:01:57Z</time></trkpt><trkpt lat="43.30944258533739" lon="10.488455924408461"><ele>0.2857142857142857</ele><time>2026-04-11T06:02:02Z</time></trkpt><trkpt lat="43.30950370401885" lon="10.488394186642195"><ele>0.14285714285714285</ele><time>2026-04-11T06:02:07Z</time></trkpt><trkpt lat="43.3095570373679" lon="10.488340450231194"><ele>0.0</ele><time>2026-04-11T06:02:12Z</time></trkpt><trkpt lat="43.30961419447689" lon="10.488291390854075"><ele>0.0</ele><time>2026-04-11T06:02:17Z</time></trkpt><trkpt lat="43.30966546083679" lon="10.488240450695947"><ele>0.0</ele><time>2026-04-11T06:02:22Z</time></trkpt><trkpt lat="43.30972620235167" lon="10.488188947665604"><ele>0.0</ele><time>2026-04-11T06:02:27Z</time></trkpt><trkpt lat="43.3097886506879" lon="10.488134177299637"><ele>0.0</ele><time>2026-04-11T06:02:32Z</time></trkpt><trkpt lat="43.30985067169599" lon="10.48808518102279"><ele>0.0</ele><time>2026-04-11T06:02:37Z</time></trkpt><trkpt lat="43.30990987423485" lon="10.488027082522995"><ele>0.0</ele><time>2026-04-11T06:02:42Z</time></trkpt><trkpt lat="43.30997033347599" lon="10.487979742960034"><ele>0.0</ele><time>2026-04-11T06:02:47Z</time></trkpt><trkpt lat="43.310029777961184" lon="10.487923483556903"><ele>0.14285714285714285</ele><time>2026-04-11T06:02:52Z</time></trkpt><trkpt lat="43.31009177738393" lon="10.487871369489497"><ele>0.2857142857142857</ele><time>2026-04-11T06:02:57Z</time></trkpt><trkpt lat="43.31015224284064" lon="10.487816900641947"><ele>0.42857142857142855</ele><time>2026-04-11T06:03:02Z</time></trkpt><trkpt lat="43.31021562639922" lon="10.487765040950633"><ele>0.5714285714285714</ele><time>2026-04-11T06:03:07Z</time></trkpt><trkpt lat="43.31027186418409" lon="10.48772097450266"><ele>0.7142857142857142</ele><time>2026-04-11T06:03:12Z</time></trkpt><trkpt lat="43.31033333561002" lon="10.487661277185591"><ele>0.8571428571428571</ele><time>2026-04-11T06:03:17Z</time></trkpt><trkpt lat="43.310395963971914" lon="10.487606428353823"><ele>1.0</ele><time>2026-04-11T06:03:22Z</time></trkpt><trkpt lat="43.31045769226572" lon="10.487555935571999"><ele>1.0</ele><time>2026-04-11T06:03:27Z</time></trkpt><trkpt lat="43.310508368325564" lon="10.487502771386046"><ele>0.9999999999999999</ele><time>2026-04-11T06:03:31Z</time></trkpt><trkpt lat="43.310565840383674" lon="10.487452129617788"><ele>1.0</ele><time>2026-04-11T06:03:36Z</time></trkpt><trkpt lat="43.31062755289122" lon="10.487396311699282"><ele>1.0</ele><time>2026-04-11T06:03:41Z</time></trkpt><trkpt lat="43.31068352212193" lon="10.4873474055315"><ele>0.9999999999999999</ele><time>2026-04-11T06:03:46Z</time></trkpt><trkpt lat="43.310748206475814" lon="10.487291818595489"><ele>1.0</ele><time>2026-04-11T06:03:51Z</time></trkpt><trkpt lat="43.31080963098691" lon="10.487234020953768"><ele>1.0</ele><time>2026-04-11T06:03:56Z</time></trkpt><trkpt lat="43.31087152172525" lon="10.487188331417581"><ele>1.0</ele><time>2026-04-11T06:04:01Z</time></trkpt><trkpt lat="43.310944932966066" lon="10.487166416516734"><ele>0.9999999999999999</ele><time>2026-04-11T06:04:06Z</time></trkpt><trkpt lat="43.3110063850045" lon="10.487146393028967"><ele>1.0</ele><time>2026-04-11T06:04:11Z</time></trkpt><trkpt lat="43.311078970775256" lon="10.487109668719672"><ele>1.0</ele><time>2026-04-11T06:04:16Z</time></trkpt><trkpt lat="43.31114442537041" lon="10.48708461020533"><ele>0.9999999999999999</ele><time>2026-04-11T06:04:21Z</time></trkpt><trkpt lat="43.311215150072975" lon="10.4870565406368"><ele>1.0</ele><time>2026-04-11T06:04:26Z</time></trkpt><trkpt lat="43.31127858255102" lon="10.487049409856764"><ele>1.0</ele><time>2026-04-11T06:04:30Z</time></trkpt><trkpt lat="43.31134851056119" lon="10.487057738554256"><ele>1.0</ele><time>2026-04-11T06:04:35Z</time></trkpt><trkpt lat="43.31141702604343" lon="10.487078059233848"><ele>0.9999999999999999</ele><time>2026-04-11T06:04:40Z</time></trkpt><trkpt lat="43.3114794724026" lon="10.48712348595537"><ele>1.0</ele><time>2026-04-11T06:04:45Z</time></trkpt><trkpt lat="43.31153230414553" lon="10.487197093376071"><ele>1.0</ele><time>2026-04-11T06:04:50Z</time></trkpt><trkpt lat="43.311577107272164" lon="10.487271375728728"><ele>0.9999999999999999</ele><time>2026-04-11T06:04:55Z</time></trkpt><trkpt lat="43.3116217083755" lon="10.48733871560341"><ele>1.0</ele><time>2026-04-11T06:04:59Z</time></trkpt><trkpt lat="43.3116666786804" lon="10.487414050669914"><ele>1.0</ele><time>2026-04-11T06:05:04Z</time></trkpt><trkpt lat="43.31171185068402" lon="10.487483353586356"><ele>0.8571428571428571</ele><time>2026-04-11T06:05:09Z</time></trkpt><trkpt lat="43.31175431779148" lon="10.487563747081362"><ele>0.7142857142857142</ele><time>2026-04-11T06:05:14Z</time></trkpt><trkpt lat="43.31179572900654" lon="10.487636219298102"><ele>0.5714285714285714</ele><time>2026-04-11T06:05:19Z</time></trkpt><trkpt lat="43.31184107914357" lon="10.48771666337981"><ele>0.42857142857142855</ele><time>2026-04-11T06:05:24Z</time></trkpt><trkpt lat="43.311883859744576" lon="10.487786713175286"><ele>0.2857142857142857</ele><time>2026-04-11T06:05:29Z</time></trkpt><trkpt lat="43.31192541185806" lon="10.487853842288786"><ele>0.14285714285714285</ele><time>2026-04-11T06:05:34Z</time></trkpt><trkpt lat="43.311966111971905" lon="10.487920562686831"><ele>0.0</ele><time>2026-04-11T06:05:38Z</time></trkpt><trkpt lat="43.3120047755091" lon="10.487988955021143"><ele>0.0</ele><time>2026-04-11T06:05:42Z</time></trkpt><trkpt lat="43.312046785787416" lon="10.488062424943573"><ele>0.0</ele><time>2026-04-11T06:05:47Z</time></trkpt><trkpt lat="43.31209734395117" lon="10.488138853912687"><ele>0.0</ele><time>2026-04-11T06:05:52Z</time></trkpt><trkpt lat="43.31214132795975" lon="10.488217955007476"><ele>0.0</ele><time>2026-04-11T06:05:57Z</time></trkpt><trkpt lat="43.31218553365324" lon="10.48829661460215"><ele>0.0</ele><time>2026-04-11T06:06:02Z</time></trkpt><trkpt lat="43.31223689360547" lon="10.48838001863485"><ele>0.0</ele><time>2026-04-11T06:06:07Z</time></trkpt><trkpt lat="43.3122796124895" lon="10.488454965911234"><ele>0.0</ele><time>2026-04-11T06:06:12Z</time></trkpt><trkpt lat="43.31232401638842" lon="10.48853765879117"><ele>-0.14285714285714285</ele><time>2026-04-11T06:06:17Z</time></trkpt><trkpt lat="43.31237408362479" lon="10.488616507324831"><ele>-0.2857142857142857</ele><time>2026-04-11T06:06:23Z</time></trkpt><trkpt lat="43.31241990003508" lon="10.488695808336415"><ele>-0.42857142857142855</ele><time>2026-04-11T06:06:28Z</time></trkpt><trkpt lat="43.31246431802387" lon="10.488778438009277"><ele>-0.5714285714285714</ele><time>2026-04-11T06:06:33Z</time></trkpt><trkpt lat="43.312509465450034" lon="10.488850431521291"><ele>-0.7142857142857142</ele><time>2026-04-11T06:06:38Z</time></trkpt><trkpt lat="43.31255366136457" lon="10.488925710875769"><ele>-0.8571428571428571</ele><time>2026-04-11T06:06:44Z</time></trkpt><trkpt lat="43.312591962998525" lon="10.488995442991177"><ele>-1.0</ele><time>2026-04-11T06:06:48Z</time></trkpt><trkpt lat="43.31263181486151" lon="10.489068786692542"><ele>-1.0</ele><time>2026-04-11T06:06:53Z</time></trkpt><trkpt lat="43.312679797296354" lon="10.489151232373453"><ele>-0.9999999999999999</ele><time>2026-04-11T06:06:58Z</time></trkpt><trkpt lat="43.31272493996912" lon="10.489219103071544"><ele>-1.0</ele><time>2026-04-11T06:07:03Z</time></trkpt><trkpt lat="43.31277106992555" lon="10.489288614255376"><ele>-1.0</ele><time>2026-04-11T06:07:08Z</time></trkpt><trkpt lat="43.312807822277826" lon="10.489366053465071"><ele>-0.9999999999999999</ele><time>2026-04-11T06:07:13Z</time></trkpt><trkpt lat="43.31285109257563" lon="10.489429614815434"><ele>-1.0</ele><time>2026-04-11T06:07:17Z</time></trkpt><trkpt lat="43.3129059408178" lon="10.489511367195687"><ele>-1.0</ele><time>2026-04-11T06:07:22Z</time></trkpt><trkpt lat="43.31294669902646" lon="10.489585406077204"><ele>-1.0</ele><time>2026-04-11T06:07:27Z</time></trkpt><trkpt lat="43.31299267988754" lon="10.489662820080735"><ele>-0.9999999999999999</ele><time>2026-04-11T06:07:32Z</time></trkpt><trkpt lat="43.31303359630791" lon="10.48973965423437"><ele>-1.0</ele><time>2026-04-11T06:07:37Z</time></trkpt><trkpt lat="43.313073880823396" lon="10.48981182949591"><ele>-1.0</ele><time>2026-04-11T06:07:42Z</time></trkpt><trkpt lat="43.31311737213343" lon="10.489888209191422"><ele>-0.9999999999999999</ele><time>2026-04-11T06:07:47Z</time></trkpt><trkpt lat="43.31316067935993" lon="10.489973420556899"><ele>-1.0</ele><time>2026-04-11T06:07:52Z</time></trkpt><trkpt lat="43.31320697223434" lon="10.490050845386271"><ele>-1.0</ele><time>2026-04-11T06:07:57Z</time></trkpt><trkpt lat="43.31324991535234" lon="10.49012751210375"><ele>-0.5714285714285714</ele><time>2026-04-11T06:08:02Z</time></trkpt><trkpt lat="43.31329891435503" lon="10.490200853164273"><ele>-0.1428571428571428</ele><time>2026-04-11T06:08:07Z</time></trkpt><trkpt lat="43.313347808945444" lon="10.490278456651792"><ele>0.2857142857142857</ele><time>2026-04-11T06:08:12Z</time></trkpt><trkpt lat="43.313388078494576" lon="10.490358414923568"><ele>0.7142857142857142</ele><time>2026-04-11T06:08:17Z</time></trkpt><trkpt lat="43.31343509870467" lon="10.490433787431956"><ele>1.1428571428571428</ele><time>2026-04-11T06:08:22Z</time></trkpt><trkpt lat="43.31348327324511" lon="10.490515691976578"><ele>1.5714285714285714</ele><time>2026-04-11T06:08:27Z</time></trkpt><trkpt lat="43.31352966888192" lon="10.490586418381508"><ele>2.0</ele><time>2026-04-11T06:08:32Z</time></trkpt><trkpt lat="43.31357577201156" lon="10.490662909408945"><ele>2.142857142857143</ele><time>2026-04-11T06:08:37Z</time></trkpt><trkpt lat="43.31361937125594" lon="10.490737953481457"><ele>2.2857142857142856</ele><time>2026-04-11T06:08:42Z</time></trkpt><trkpt lat="43.31366523400924" lon="10.490814878148566"><ele>2.4285714285714284</ele><time>2026-04-11T06:08:47Z</time></trkpt><trkpt lat="43.31370470018529" lon="10.490890239684159"><ele>2.571428571428571</ele><time>2026-04-11T06:08:52Z</time></trkpt><trkpt lat="43.313741804174164" lon="10.490962179111445"><ele>2.7142857142857144</ele><time>2026-04-11T06:08:56Z</time></trkpt><trkpt lat="43.313782935389646" lon="10.49102812531393"><ele>2.8571428571428568</ele><time>2026-04-11T06:09:00Z</time></trkpt><trkpt lat="43.3138339357035" lon="10.491110305102941"><ele>3.0</ele><time>2026-04-11T06:09:05Z</time></trkpt><trkpt lat="43.31387364083109" lon="10.49118810290984"><ele>2.8571428571428568</ele><time>2026-04-11T06:09:10Z</time></trkpt><trkpt lat="43.313916101111936" lon="10.491263237883024"><ele>2.7142857142857144</ele><time>2026-04-11T06:09:15Z</time></trkpt><trkpt lat="43.3139629620327" lon="10.491342774571205"><ele>2.571428571428571</ele><time>2026-04-11T06:09:20Z</time></trkpt><trkpt lat="43.31400672364814" lon="10.491415249056377"><ele>2.4285714285714284</ele><time>2026-04-11T06:09:25Z</time></trkpt><trkpt lat="43.314049706355924" lon="10.4914926678479"><ele>2.2857142857142856</ele><time>2026-04-11T06:09:30Z</time></trkpt><trkpt lat="43.31409305859015" lon="10.491577118937437"><ele>2.142857142857143</ele><time>2026-04-11T06:09:35Z</time></trkpt><trkpt lat="43.31413898661926" lon="10.49165102156646"><ele>2.0</ele><time>2026-04-11T06:09:40Z</time></trkpt><trkpt lat="43.31418321512363" lon="10.491722657390824"><ele>2.0</ele><time>2026-04-11T06:09:45Z</time></trkpt><trkpt lat="43.31422437510732" lon="10.491800022884384"><ele>1.9999999999999998</ele><time>2026-04-11T06:09:50Z</time></trkpt><trkpt lat="43.31426825982589" lon="10.491869100720438"><ele>2.0</ele><time>2026-04-11T06:09:55Z</time></trkpt><trkpt lat="43.314318506843826" lon="10.491937415745396"><ele>2.0</ele><time>2026-04-11T06:10:00Z</time></trkpt><trkpt lat="43.314363918586785" lon="10.492018510496454"><ele>1.9999999999999998</ele><time>2026-04-11T06:10:05Z</time></trkpt><trkpt lat="43.31440709525828" lon="10.492098683045125"><ele>2.0</ele><time>2026-04-11T06:10:10Z</time></trkpt><trkpt lat="43.314443035233694" lon="10.492173293154446"><ele>2.0</ele><time>2026-04-11T06:10:15Z</time></trkpt><trkpt lat="43.314494295141294" lon="10.492248547871487"><ele>2.0</ele><time>2026-04-11T06:10:20Z</time></trkpt><trkpt lat="43.314538998233424" lon="10.49231993576893"><ele>1.9999999999999998</ele><time>2026-04-11T06:10:25Z</time></trkpt><trkpt lat="43.31457972652634" lon="10.49240384514987"><ele>2.0</ele><time>2026-04-11T06:10:30Z</time></trkpt><trkpt lat="43.31462625420086" lon="10.492476168991963"><ele>2.0</ele><time>2026-04-11T06:10:35Z</time></trkpt><trkpt lat="43.31467797911886" lon="10.49255426696299"><ele>1.9999999999999998</ele><time>2026-04-11T06:10:40Z</time></trkpt><trkpt lat="43.3147197251126" lon="10.49262224404171"><ele>2.0</ele><time>2026-04-11T06:10:45Z</time></trkpt><trkpt lat="43.314760439688385" lon="10.49269561213187"><ele>2.0</ele><time>2026-04-11T06:10:50Z</time></trkpt><trkpt lat="43.31479976816831" lon="10.492779985342066"><ele>2.0</ele><time>2026-04-11T06:10:55Z</time></trkpt><trkpt lat="43.31484460021117" lon="10.492860340337831"><ele>1.9999999999999998</ele><time>2026-04-11T06:11:00Z</time></trkpt><trkpt lat="43.314884612873726" lon="10.492931362683976"><ele>2.0</ele><time>2026-04-11T06:11:04Z</time></trkpt><trkpt lat="43.31493004098019" lon="10.493007535983649"><ele>2.0</ele><time>2026-04-11T06:11:09Z</time></trkpt><trkpt lat="43.31497718290821" lon="10.49309103902144"><ele>1.9999999999999998</ele><time>2026-04-11T06:11:14Z</time></trkpt><trkpt lat="43.31502115587175" lon="10.493164997459342"><ele>2.0</ele><time>2026-04-11T06:11:19Z</time></trkpt><trkpt lat="43.3150666431165" lon="10.493241191682165"><ele>2.0</ele><time>2026-04-11T06:11:24Z</time></trkpt><trkpt lat="43.315106369513636" lon="10.49331617696752"><ele>2.0</ele><time>2026-04-11T06:11:29Z</time></trkpt><trkpt lat="43.31515485101287" lon="10.493390074241391"><ele>1.9999999999999998</ele><time>2026-04-11T06:11:34Z</time></trkpt><trkpt lat="43.3151999960203" lon="10.493464908018325"><ele>2.0</ele><time>2026-04-11T06:11:39Z</time></trkpt><trkpt lat="43.315245489872126" lon="10.493539881151237"><ele>2.0</ele><time>2026-04-11T06:11:44Z</time></trkpt><trkpt lat="43.315289256180094" lon="10.493616866011905"><ele>1.9999999999999998</ele><time>2026-04-11T06:11:49Z</time></trkpt><trkpt lat="43.31532855492953" lon="10.493694456302235"><ele>2.0</ele><time>2026-04-11T06:11:54Z</time></trkpt><trkpt lat="43.31537817985597" lon="10.493765157012056"><ele>2.0</ele><time>2026-04-11T06:11:59Z</time></trkpt><trkpt lat="43.315422024022205" lon="10.4938391199195"><ele>2.0</ele><time>2026-04-11T06:12:04Z</time></trkpt><trkpt lat="43.31546841041452" lon="10.493912995911147"><ele>1.9999999999999998</ele><time>2026-04-11T06:12:09Z</time></trkpt><trkpt lat="43.31551238790307" lon="10.493993146512839"><ele>2.0</ele><time>2026-04-11T06:12:14Z</time></trkpt><trkpt lat="43.31554570170713" lon="10.494066776464026"><ele>2.0</ele><time>2026-04-11T06:12:19Z</time></trkpt><trkpt lat="43.31559445512952" lon="10.49414315843084"><ele>1.9999999999999998</ele><time>2026-04-11T06:12:24Z</time></trkpt><trkpt lat="43.31563633834507" lon="10.494217306027721"><ele>2.0</ele><time>2026-04-11T06:12:29Z</time></trkpt><trkpt lat="43.315678667173906" lon="10.49429000720973"><ele>2.0</ele><time>2026-04-11T06:12:34Z</time></trkpt><trkpt lat="43.31571924938445" lon="10.494359195272642"><ele>2.0</ele><time>2026-04-11T06:12:39Z</time></trkpt><trkpt lat="43.31576277106599" lon="10.494437655434611"><ele>1.9999999999999998</ele><time>2026-04-11T06:12:44Z</time></trkpt><trkpt lat="43.31580583105095" lon="10.49451288006758"><ele>2.0</ele><time>2026-04-11T06:12:49Z</time></trkpt><trkpt lat="43.315850930891266" lon="10.494578848364117"><ele>2.0</ele><time>2026-04-11T06:12:53Z</time></trkpt><trkpt lat="43.315895835352656" lon="10.494652391784527"><ele>1.9999999999999998</ele><time>2026-04-11T06:12:58Z</time></trkpt><trkpt lat="43.31594665342126" lon="10.494736405064819"><ele>2.0</ele><time>2026-04-11T06:13:03Z</time></trkpt><trkpt lat="43.315993702145256" lon="10.4948115105779"><ele>2.0</ele><time>2026-04-11T06:13:08Z</time></trkpt><trkpt lat="43.31604162866563" lon="10.494888055509424"><ele>2.0</ele><time>2026-04-11T06:13:13Z</time></trkpt><trkpt lat="43.31609309590308" lon="10.494955891534241"><ele>1.9999999999999998</ele><time>2026-04-11T06:13:18Z</time></trkpt><trkpt lat="43.31614172125231" lon="10.49503174935206"><ele>2.0</ele><time>2026-04-11T06:13:24Z</time></trkpt><trkpt lat="43.31618180516374" lon="10.495104840689677"><ele>2.0</ele><time>2026-04-11T06:13:28Z</time></trkpt><trkpt lat="43.316222918919415" lon="10.495182920459289"><ele>1.9999999999999998</ele><time>2026-04-11T06:13:33Z</time></trkpt><trkpt lat="43.31627907350183" lon="10.495258016563461"><ele>2.0</ele><time>2026-04-11T06:13:38Z</time></trkpt><trkpt lat="43.31631991886085" lon="10.49532721758191"><ele>2.0</ele><time>2026-04-11T06:13:42Z</time></trkpt><trkpt lat="43.31635527150111" lon="10.495408966048045"><ele>2.0</ele><time>2026-04-11T06:13:47Z</time></trkpt><trkpt lat="43.31639700819188" lon="10.495476046212023"><ele>1.9999999999999998</ele><time>2026-04-11T06:13:51Z</time></trkpt><trkpt lat="43.31643710122361" lon="10.495557046142089"><ele>2.0</ele><time>2026-04-11T06:13:56Z</time></trkpt><trkpt lat="43.316475576115536" lon="10.49562881664381"><ele>2.0</ele><time>2026-04-11T06:14:00Z</time></trkpt><trkpt lat="43.316521750770285" lon="10.495706562832266"><ele>1.9999999999999998</ele><time>2026-04-11T06:14:05Z</time></trkpt><trkpt lat="43.316556270950336" lon="10.495790148684515"><ele>2.0</ele><time>2026-04-11T06:14:10Z</time></trkpt><trkpt lat="43.316597082440204" lon="10.495864634870236"><ele>2.0</ele><time>2026-04-11T06:14:15Z</time></trkpt><trkpt lat="43.31663960726293" lon="10.49595253995237"><ele>2.0</ele><time>2026-04-11T06:14:20Z</time></trkpt><trkpt lat="43.31668350071216" lon="10.496015517290791"><ele>1.9999999999999998</ele><time>2026-04-11T06:14:24Z</time></trkpt><trkpt lat="43.31673018142072" lon="10.4960938032619"><ele>2.0</ele><time>2026-04-11T06:14:29Z</time></trkpt><trkpt lat="43.31678480773866" lon="10.496176637340334"><ele>2.0</ele><time>2026-04-11T06:14:34Z</time></trkpt><trkpt lat="43.316835064667906" lon="10.496252688265011"><ele>1.9999999999999998</ele><time>2026-04-11T06:14:39Z</time></trkpt><trkpt lat="43.31687655241791" lon="10.496318788781833"><ele>2.0</ele><time>2026-04-11T06:14:43Z</time></trkpt><trkpt lat="43.31691365434359" lon="10.496389313564006"><ele>2.0</ele><time>2026-04-11T06:14:47Z</time></trkpt><trkpt lat="43.31696366777084" lon="10.496473454592945"><ele>2.0</ele><time>2026-04-11T06:14:53Z</time></trkpt><trkpt lat="43.317006600587405" lon="10.496547391491484"><ele>1.9999999999999998</ele><time>2026-04-11T06:14:58Z</time></trkpt><trkpt lat="43.31705098283534" lon="10.496622772078709"><ele>2.0</ele><time>2026-04-11T06:15:03Z</time></trkpt><trkpt lat="43.31709117618497" lon="10.496703089105427"><ele>2.0</ele><time>2026-04-11T06:15:08Z</time></trkpt><trkpt lat="43.317139027121385" lon="10.496776113768318"><ele>1.9999999999999998</ele><time>2026-04-11T06:15:13Z</time></trkpt><trkpt lat="43.317182345043705" lon="10.49684810352058"><ele>2.0</ele><time>2026-04-11T06:15:18Z</time></trkpt><trkpt lat="43.31722323763867" lon="10.496922179933232"><ele>2.0</ele><time>2026-04-11T06:15:23Z</time></trkpt><trkpt lat="43.31727505773687" lon="10.496999628035466"><ele>2.0</ele><time>2026-04-11T06:15:28Z</time></trkpt><trkpt lat="43.31731528541039" lon="10.497078734391627"><ele>1.9999999999999998</ele><time>2026-04-11T06:15:33Z</time></trkpt><trkpt lat="43.317353180153944" lon="10.497159586205926"><ele>2.0</ele><time>2026-04-11T06:15:38Z</time></trkpt><trkpt lat="43.31735930224851" lon="10.49725891941336"><ele>2.0</ele><time>2026-04-11T06:15:43Z</time></trkpt><trkpt lat="43.31735939019407" lon="10.497366056887376"><ele>1.9999999999999998</ele><time>2026-04-11T06:15:48Z</time></trkpt><trkpt lat="43.317354824767115" lon="10.497465838167638"><ele>2.0</ele><time>2026-04-11T06:15:53Z</time></trkpt><trkpt lat="43.317362558837594" lon="10.49756461692603"><ele>2.0</ele><time>2026-04-11T06:15:58Z</time></trkpt><trkpt lat="43.31736341031552" lon="10.497661927179037"><ele>2.142857142857143</ele><time>2026-04-11T06:16:03Z</time></trkpt><trkpt lat="43.317342187542586" lon="10.497758807376467"><ele>2.2857142857142856</ele><time>2026-04-11T06:16:08Z</time></trkpt><trkpt lat="43.31732289443153" lon="10.497846112711814"><ele>2.4285714285714284</ele><time>2026-04-11T06:16:13Z</time></trkpt><trkpt lat="43.31728995021851" lon="10.497940456157153"><ele>2.571428571428571</ele><time>2026-04-11T06:16:18Z</time></trkpt><trkpt lat="43.3172687622212" lon="10.498038250127703"><ele>2.7142857142857144</ele><time>2026-04-11T06:16:25Z</time></trkpt><trkpt lat="43.31726117510875" lon="10.498132474335069"><ele>2.8571428571428568</ele><time>2026-04-11T06:16:30Z</time></trkpt><trkpt lat="43.317254138934445" lon="10.498226347849883"><ele>3.0</ele><time>2026-04-11T06:16:35Z</time></trkpt><trkpt lat="43.31728587678175" lon="10.498317292468162"><ele>2.9999999999999996</ele><time>2026-04-11T06:16:40Z</time></trkpt><trkpt lat="43.317326603309745" lon="10.498400087215835"><ele>3.0</ele><time>2026-04-11T06:16:45Z</time></trkpt><trkpt lat="43.317366625308104" lon="10.4984759609322"><ele>3.0</ele><time>2026-04-11T06:16:49Z</time></trkpt><trkpt lat="43.31739952199741" lon="10.498556079031344"><ele>3.0</ele><time>2026-04-11T06:16:53Z</time></trkpt><trkpt lat="43.31744090501424" lon="10.498635767021028"><ele>3.0</ele><time>2026-04-11T06:16:58Z</time></trkpt><trkpt lat="43.31748721355156" lon="10.498712739745727"><ele>2.9999999999999996</ele><time>2026-04-11T06:17:03Z</time></trkpt><trkpt lat="43.31752918738742" lon="10.498789446986372"><ele>3.0</ele><time>2026-04-11T06:17:08Z</time></trkpt><trkpt lat="43.31758312478533" lon="10.498862246929422"><ele>2.9999999999999996</ele><time>2026-04-11T06:17:13Z</time></trkpt><trkpt lat="43.317626995297594" lon="10.49893700651768"><ele>3.0</ele><time>2026-04-11T06:17:18Z</time></trkpt><trkpt lat="43.31767374829641" lon="10.49900377268287"><ele>3.0</ele><time>2026-04-11T06:17:23Z</time></trkpt><trkpt lat="43.31770372660744" lon="10.49908643612775"><ele>3.0</ele><time>2026-04-11T06:17:28Z</time></trkpt><trkpt lat="43.31775821183351" lon="10.499165624589487"><ele>3.0</ele><time>2026-04-11T06:17:33Z</time></trkpt><trkpt lat="43.31781985476013" lon="10.499218915928141"><ele>2.9999999999999996</ele><time>2026-04-11T06:17:38Z</time></trkpt><trkpt lat="43.3178513524797" lon="10.499294001878788"><ele>3.0</ele><time>2026-04-11T06:17:43Z</time></trkpt><trkpt lat="43.31789548759205" lon="10.499368284824762"><ele>2.9999999999999996</ele><time>2026-04-11T06:17:47Z</time></trkpt><trkpt lat="43.31793806295463" lon="10.4994321323535"><ele>3.0</ele><time>2026-04-11T06:17:51Z</time></trkpt><trkpt lat="43.31799186658108" lon="10.49948784992756"><ele>3.0</ele><time>2026-04-11T06:17:56Z</time></trkpt><trkpt lat="43.31805291849107" lon="10.499537614651036"><ele>3.0</ele><time>2026-04-11T06:18:01Z</time></trkpt><trkpt lat="43.31812246487039" lon="10.49958431354134"><ele>3.0</ele><time>2026-04-11T06:18:06Z</time></trkpt><trkpt lat="43.318179941148266" lon="10.499624654899861"><ele>2.9999999999999996</ele><time>2026-04-11T06:18:10Z</time></trkpt><trkpt lat="43.31823694041529" lon="10.499666712117"><ele>3.0</ele><time>2026-04-11T06:18:14Z</time></trkpt><trkpt lat="43.31829772792826" lon="10.499712729049916"><ele>3.1428571428571423</ele><time>2026-04-11T06:18:19Z</time></trkpt><trkpt lat="43.318367669715734" lon="10.499757138272416"><ele>3.2857142857142856</ele><time>2026-04-11T06:18:24Z</time></trkpt><trkpt lat="43.318439733002805" lon="10.49978424313751"><ele>3.4285714285714284</ele><time>2026-04-11T06:18:29Z</time></trkpt><trkpt lat="43.31851082629762" lon="10.499791319615849"><ele>3.571428571428571</ele><time>2026-04-11T06:18:34Z</time></trkpt><trkpt lat="43.318581108956735" lon="10.499791233428873"><ele>3.714285714285714</ele><time>2026-04-11T06:18:40Z</time></trkpt><trkpt lat="43.31865753627578" lon="10.499790505511735"><ele>3.8571428571428568</ele><time>2026-04-11T06:18:45Z</time></trkpt><trkpt lat="43.318732776898436" lon="10.499778949252406"><ele>4.0</ele><time>2026-04-11T06:18:50Z</time></trkpt><trkpt lat="43.31880430719267" lon="10.499789480865074"><ele>4.0</ele><time>2026-04-11T06:18:55Z</time></trkpt><trkpt lat="43.31887997667279" lon="10.499806530541546"><ele>3.9999999999999996</ele><time>2026-04-11T06:19:01Z</time></trkpt><trkpt lat="43.31893295977698" lon="10.499886382388919"><ele>4.0</ele><time>2026-04-11T06:19:06Z</time></trkpt><trkpt lat="43.318981673339714" lon="10.499952698087686"><ele>4.0</ele><time>2026-04-11T06:19:10Z</time></trkpt><trkpt lat="43.3190241245593" lon="10.500016734510803"><ele>3.9999999999999996</ele><time>2026-04-11T06:19:14Z</time></trkpt><trkpt lat="43.31907017050187" lon="10.500093799682855"><ele>4.0</ele><time>2026-04-11T06:19:19Z</time></trkpt><trkpt lat="43.319105476968836" lon="10.500173759759658"><ele>4.0</ele><time>2026-04-11T06:19:24Z</time></trkpt><trkpt lat="43.31913584850429" lon="10.500250978329827"><ele>3.8571428571428568</ele><time>2026-04-11T06:19:29Z</time></trkpt><trkpt lat="43.31918378894801" lon="10.500330358244506"><ele>3.714285714285714</ele><time>2026-04-11T06:19:34Z</time></trkpt><trkpt lat="43.319224010668385" lon="10.500408816290632"><ele>3.571428571428571</ele><time>2026-04-11T06:19:39Z</time></trkpt><trkpt lat="43.31926136084107" lon="10.500489117232016"><ele>3.4285714285714284</ele><time>2026-04-11T06:19:44Z</time></trkpt><trkpt lat="43.31931262262146" lon="10.500568490746259"><ele>3.2857142857142856</ele><time>2026-04-11T06:19:49Z</time></trkpt><trkpt lat="43.31935656763178" lon="10.500639842690868"><ele>3.1428571428571423</ele><time>2026-04-11T06:19:54Z</time></trkpt><trkpt lat="43.31940474625617" lon="10.50071765222699"><ele>3.0</ele><time>2026-04-11T06:20:00Z</time></trkpt><trkpt lat="43.31945046718334" lon="10.500801315931783"><ele>2.9999999999999996</ele><time>2026-04-11T06:20:05Z</time></trkpt><trkpt lat="43.3194895441376" lon="10.500891880993883"><ele>3.0</ele><time>2026-04-11T06:20:10Z</time></trkpt><trkpt lat="43.31953051011825" lon="10.500962542163425"><ele>3.0</ele><time>2026-04-11T06:20:15Z</time></trkpt><trkpt lat="43.31957609850381" lon="10.5010499557634"><ele>3.0</ele><time>2026-04-11T06:20:20Z</time></trkpt><trkpt lat="43.31961745948352" lon="10.50111940632131"><ele>3.0</ele><time>2026-04-11T06:20:25Z</time></trkpt><trkpt lat="43.3196592461178" lon="10.501195970446872"><ele>2.9999999999999996</ele><time>2026-04-11T06:20:30Z</time></trkpt><trkpt lat="43.319691447220094" lon="10.501271018085871"><ele>3.0</ele><time>2026-04-11T06:20:34Z</time></trkpt><trkpt lat="43.31971644530154" lon="10.501350510384572"><ele>3.2857142857142856</ele><time>2026-04-11T06:20:38Z</time></trkpt><trkpt lat="43.319750837693874" lon="10.501444655758556"><ele>3.571428571428571</ele><time>2026-04-11T06:20:43Z</time></trkpt><trkpt lat="43.31979457365451" lon="10.50152090713803"><ele>3.8571428571428568</ele><time>2026-04-11T06:20:47Z</time></trkpt><trkpt lat="43.319851052321575" lon="10.501587908156003"><ele>4.142857142857142</ele><time>2026-04-11T06:20:52Z</time></trkpt><trkpt lat="43.31988656566497" lon="10.501674422861853"><ele>4.428571428571429</ele><time>2026-04-11T06:20:58Z</time></trkpt><trkpt lat="43.31991957625859" lon="10.501754934584724"><ele>4.714285714285714</ele><time>2026-04-11T06:21:02Z</time></trkpt><trkpt lat="43.319964795379796" lon="10.50184154969971"><ele>5.0</ele><time>2026-04-11T06:21:07Z</time></trkpt><trkpt lat="43.320009839284175" lon="10.50190715139572"><ele>5.0</ele><time>2026-04-11T06:21:12Z</time></trkpt><trkpt lat="43.32005644471766" lon="10.501988467718485"><ele>5.0</ele><time>2026-04-11T06:21:17Z</time></trkpt><trkpt lat="43.32008770640322" lon="10.502065100323291"><ele>5.0</ele><time>2026-04-11T06:21:22Z</time></trkpt><trkpt lat="43.32012714579705" lon="10.50214715753191"><ele>5.0</ele><time>2026-04-11T06:21:27Z</time></trkpt><trkpt lat="43.32016235211727" lon="10.502234485502282"><ele>5.0</ele><time>2026-04-11T06:21:32Z</time></trkpt><trkpt lat="43.32020408064476" lon="10.502310855340719"><ele>5.0</ele><time>2026-04-11T06:21:37Z</time></trkpt><trkpt lat="43.32024282826981" lon="10.502398974497053"><ele>5.0</ele><time>2026-04-11T06:21:44Z</time></trkpt><trkpt lat="43.32028528052424" lon="10.502480753947498"><ele>4.857142857142857</ele><time>2026-04-11T06:21:49Z</time></trkpt><trkpt lat="43.32033548252095" lon="10.502562153879852"><ele>4.714285714285714</ele><time>2026-04-11T06:21:54Z</time></trkpt><trkpt lat="43.32037508702144" lon="10.50263383522212"><ele>4.571428571428571</ele><time>2026-04-11T06:21:59Z</time></trkpt><trkpt lat="43.320412502300314" lon="10.502723291599766"><ele>4.428571428571429</ele><time>2026-04-11T06:22:04Z</time></trkpt><trkpt lat="43.32046214800811" lon="10.502805108938162"><ele>4.285714285714286</ele><time>2026-04-11T06:22:09Z</time></trkpt><trkpt lat="43.320507078717654" lon="10.502898668364926"><ele>4.142857142857142</ele><time>2026-04-11T06:22:14Z</time></trkpt><trkpt lat="43.320545411676" lon="10.502970160661425"><ele>4.0</ele><time>2026-04-11T06:22:19Z</time></trkpt><trkpt lat="43.320592400912844" lon="10.503054293478542"><ele>3.8571428571428568</ele><time>2026-04-11T06:22:25Z</time></trkpt><trkpt lat="43.32063536956554" lon="10.503126583344663"><ele>3.714285714285714</ele><time>2026-04-11T06:22:30Z</time></trkpt><trkpt lat="43.32067351589337" lon="10.503197049511632"><ele>3.571428571428571</ele><time>2026-04-11T06:22:35Z</time></trkpt><trkpt lat="43.32071792997814" lon="10.503270703475865"><ele>3.4285714285714284</ele><time>2026-04-11T06:22:40Z</time></trkpt><trkpt lat="43.320760812976246" lon="10.50336015880677"><ele>3.2857142857142856</ele><time>2026-04-11T06:22:45Z</time></trkpt><trkpt lat="43.32081082793202" lon="10.503443207876558"><ele>3.1428571428571423</ele><time>2026-04-11T06:22:50Z</time></trkpt><trkpt lat="43.320868376774705" lon="10.503526104565791"><ele>3.0</ele><time>2026-04-11T06:22:55Z</time></trkpt><trkpt lat="43.320905377406255" lon="10.503616036363297"><ele>2.9999999999999996</ele><time>2026-04-11T06:23:00Z</time></trkpt><trkpt lat="43.32093889390986" lon="10.50371099252233"><ele>3.0</ele><time>2026-04-11T06:23:05Z</time></trkpt><trkpt lat="43.3209765871391" lon="10.503795596643217"><ele>3.0</ele><time>2026-04-11T06:23:10Z</time></trkpt><trkpt lat="43.321020806117474" lon="10.503873412913244"><ele>3.0</ele><time>2026-04-11T06:23:15Z</time></trkpt><trkpt lat="43.32106142027739" lon="10.503943118649444"><ele>3.0</ele><time>2026-04-11T06:23:19Z</time></trkpt><trkpt lat="43.32110123335987" lon="10.504040226288376"><ele>2.9999999999999996</ele><time>2026-04-11T06:23:24Z</time></trkpt><trkpt lat="43.32114746632661" lon="10.50410508603224"><ele>3.0</ele><time>2026-04-11T06:23:28Z</time></trkpt><trkpt lat="43.32118630709985" lon="10.504176750500104"><ele>2.8571428571428568</ele><time>2026-04-11T06:23:33Z</time></trkpt><trkpt lat="43.32122320232682" lon="10.504267840779042"><ele>2.7142857142857144</ele><time>2026-04-11T06:23:39Z</time></trkpt><trkpt lat="43.32124839204596" lon="10.504365271742765"><ele>2.571428571428571</ele><time>2026-04-11T06:23:45Z</time></trkpt><trkpt lat="43.32128815686783" lon="10.504438800539312"><ele>2.4285714285714284</ele><time>2026-04-11T06:23:50Z</time></trkpt><trkpt lat="43.321347676819066" lon="10.504500765256287"><ele>2.2857142857142856</ele><time>2026-04-11T06:23:53Z</time></trkpt><trkpt lat="43.32139193817088" lon="10.504574616411583"><ele>2.142857142857143</ele><time>2026-04-11T06:23:57Z</time></trkpt><trkpt lat="43.32143491849268" lon="10.504653061986748"><ele>2.0</ele><time>2026-04-11T06:24:02Z</time></trkpt><trkpt lat="43.32147354756022" lon="10.504744403087724"><ele>2.2857142857142856</ele><time>2026-04-11T06:24:07Z</time></trkpt><trkpt lat="43.3215128037259" lon="10.504825177250277"><ele>2.571428571428571</ele><time>2026-04-11T06:24:12Z</time></trkpt><trkpt lat="43.32155376902739" lon="10.504910826102742"><ele>2.8571428571428568</ele><time>2026-04-11T06:24:17Z</time></trkpt><trkpt lat="43.32158810172832" lon="10.504989204805476"><ele>3.142857142857143</ele><time>2026-04-11T06:24:22Z</time></trkpt><trkpt lat="43.32162765526344" lon="10.505065012464884"><ele>3.428571428571428</ele><time>2026-04-11T06:24:27Z</time></trkpt><trkpt lat="43.321674916105145" lon="10.505138473846312"><ele>3.714285714285714</ele><time>2026-04-11T06:24:32Z</time></trkpt><trkpt lat="43.32171812906485" lon="10.505208614075562"><ele>4.0</ele><time>2026-04-11T06:24:37Z</time></trkpt><trkpt lat="43.32176609823446" lon="10.505278283046415"><ele>4.0</ele><time>2026-04-11T06:24:42Z</time></trkpt><trkpt lat="43.321807550631526" lon="10.505353165324369"><ele>3.9999999999999996</ele><time>2026-04-11T06:24:47Z</time></trkpt><trkpt lat="43.321854838914575" lon="10.505427505221403"><ele>4.0</ele><time>2026-04-11T06:24:53Z</time></trkpt><trkpt lat="43.32188844210712" lon="10.505507984713965"><ele>4.0</ele><time>2026-04-11T06:24:58Z</time></trkpt><trkpt lat="43.32191756317206" lon="10.505590717142203"><ele>3.9999999999999996</ele><time>2026-04-11T06:25:03Z</time></trkpt><trkpt lat="43.32195103243785" lon="10.505667841885352"><ele>4.0</ele><time>2026-04-11T06:25:07Z</time></trkpt><trkpt lat="43.32199845853147" lon="10.505749340152507"><ele>4.0</ele><time>2026-04-11T06:25:13Z</time></trkpt><trkpt lat="43.322039536054085" lon="10.505824417942316"><ele>4.0</ele><time>2026-04-11T06:25:18Z</time></trkpt><trkpt lat="43.322074958643725" lon="10.505896906503024"><ele>3.9999999999999996</ele><time>2026-04-11T06:25:22Z</time></trkpt><trkpt lat="43.32212322503674" lon="10.505980694024942"><ele>4.0</ele><time>2026-04-11T06:25:28Z</time></trkpt><trkpt lat="43.32216091939678" lon="10.506054687453222"><ele>4.0</ele><time>2026-04-11T06:25:32Z</time></trkpt><trkpt lat="43.3222067526164" lon="10.506130062709062"><ele>3.9999999999999996</ele><time>2026-04-11T06:25:37Z</time></trkpt><trkpt lat="43.32225314668471" lon="10.506207869000516"><ele>4.0</ele><time>2026-04-11T06:25:42Z</time></trkpt><trkpt lat="43.32229397681" lon="10.506284246510244"><ele>4.0</ele><time>2026-04-11T06:25:47Z</time></trkpt><trkpt lat="43.32233248075114" lon="10.506364836022053"><ele>4.142857142857142</ele><time>2026-04-11T06:25:52Z</time></trkpt><trkpt lat="43.32237294168714" lon="10.506433106395265"><ele>4.285714285714286</ele><time>2026-04-11T06:25:57Z</time></trkpt><trkpt lat="43.32241169988469" lon="10.506519999737108"><ele>4.428571428571429</ele><time>2026-04-11T06:26:02Z</time></trkpt><trkpt lat="43.32245508046261" lon="10.506599618334764"><ele>4.571428571428571</ele><time>2026-04-11T06:26:07Z</time></trkpt><trkpt lat="43.32250346176078" lon="10.506672487010695"><ele>4.714285714285714</ele><time>2026-04-11T06:26:12Z</time></trkpt><trkpt lat="43.322540585116606" lon="10.506755361333033"><ele>4.857142857142857</ele><time>2026-04-11T06:26:17Z</time></trkpt><trkpt lat="43.32257903142379" lon="10.506837990284014"><ele>5.0</ele><time>2026-04-11T06:26:21Z</time></trkpt><trkpt lat="43.3226183893146" lon="10.50691045468332"><ele>5.0</ele><time>2026-04-11T06:26:27Z</time></trkpt><trkpt lat="43.322660864236845" lon="10.506977138171264"><ele>5.0</ele><time>2026-04-11T06:26:32Z</time></trkpt><trkpt lat="43.32270570208528" lon="10.50706952728204"><ele>5.0</ele><time>2026-04-11T06:26:38Z</time></trkpt><trkpt lat="43.32274234732665" lon="10.507142828975361"><ele>5.0</ele><time>2026-04-11T06:26:42Z</time></trkpt><trkpt lat="43.32278708386475" lon="10.507218286089227"><ele>5.0</ele><time>2026-04-11T06:26:47Z</time></trkpt><trkpt lat="43.32283050658966" lon="10.507299277923408"><ele>5.0</ele><time>2026-04-11T06:26:52Z</time></trkpt><trkpt lat="43.32286850411994" lon="10.507379089592652"><ele>5.0</ele><time>2026-04-11T06:26:57Z</time></trkpt><trkpt lat="43.32291361110891" lon="10.507463896783214"><ele>5.0</ele><time>2026-04-11T06:27:02Z</time></trkpt><trkpt lat="43.322969844046156" lon="10.507535533670046"><ele>5.0</ele><time>2026-04-11T06:27:07Z</time></trkpt><trkpt lat="43.32300027259276" lon="10.507621570651782"><ele>5.0</ele><time>2026-04-11T06:27:12Z</time></trkpt><trkpt lat="43.32303404769608" lon="10.507710692583226"><ele>5.0</ele><time>2026-04-11T06:27:17Z</time></trkpt><trkpt lat="43.3230708088181" lon="10.507786376936659"><ele>5.0</ele><time>2026-04-11T06:27:21Z</time></trkpt><trkpt lat="43.32311963555952" lon="10.507860791095075"><ele>5.0</ele><time>2026-04-11T06:27:26Z</time></trkpt><trkpt lat="43.32317057850199" lon="10.507932926136018"><ele>5.0</ele><time>2026-04-11T06:27:31Z</time></trkpt><trkpt lat="43.32320011510624" lon="10.508011175790662"><ele>5.285714285714286</ele><time>2026-04-11T06:27:36Z</time></trkpt><trkpt lat="43.32323106741577" lon="10.50809484922943"><ele>5.571428571428571</ele><time>2026-04-11T06:27:42Z</time></trkpt><trkpt lat="43.32325168537488" lon="10.508192178680321"><ele>5.857142857142858</ele><time>2026-04-11T06:27:48Z</time></trkpt><trkpt lat="43.323275249971005" lon="10.508273236955171"><ele>6.142857142857142</ele><time>2026-04-11T06:27:53Z</time></trkpt><trkpt lat="43.32328952265711" lon="10.508373553504166"><ele>6.428571428571429</ele><time>2026-04-11T06:27:58Z</time></trkpt><trkpt lat="43.32329685315636" lon="10.508478765179795"><ele>6.714285714285714</ele><time>2026-04-11T06:28:03Z</time></trkpt><trkpt lat="43.323290306528776" lon="10.508576439311998"><ele>7.0</ele><time>2026-04-11T06:28:08Z</time></trkpt><trkpt lat="43.32328237728009" lon="10.508682406804239"><ele>6.714285714285714</ele><time>2026-04-11T06:28:13Z</time></trkpt><trkpt lat="43.323255049616606" lon="10.508765537292863"><ele>6.428571428571429</ele><time>2026-04-11T06:28:18Z</time></trkpt><trkpt lat="43.323215361325566" lon="10.508849427882815"><ele>6.142857142857142</ele><time>2026-04-11T06:28:23Z</time></trkpt><trkpt lat="43.32316441726844" lon="10.508916375041046"><ele>5.857142857142858</ele><time>2026-04-11T06:28:28Z</time></trkpt><trkpt lat="43.32311608552055" lon="10.50898966678614"><ele>5.571428571428571</ele><time>2026-04-11T06:28:33Z</time></trkpt><trkpt lat="43.32307044282102" lon="10.509057492944617"><ele>5.285714285714286</ele><time>2026-04-11T06:28:38Z</time></trkpt><trkpt lat="43.32302846688884" lon="10.509124270543097"><ele>5.0</ele><time>2026-04-11T06:28:42Z</time></trkpt><trkpt lat="43.322984976166126" lon="10.50920944524496"><ele>5.0</ele><time>2026-04-11T06:28:47Z</time></trkpt><trkpt lat="43.32295183852933" lon="10.50929309272018"><ele>5.0</ele><time>2026-04-11T06:28:52Z</time></trkpt><trkpt lat="43.32293076642644" lon="10.509387256031067"><ele>5.0</ele><time>2026-04-11T06:28:57Z</time></trkpt><trkpt lat="43.322929781458036" lon="10.509487634506566"><ele>5.0</ele><time>2026-04-11T06:29:02Z</time></trkpt><trkpt lat="43.322942839479104" lon="10.509590010279585"><ele>5.0</ele><time>2026-04-11T06:29:07Z</time></trkpt><trkpt lat="43.32296143945601" lon="10.509682891204637"><ele>5.0</ele><time>2026-04-11T06:29:14Z</time></trkpt><trkpt lat="43.322983304891736" lon="10.509786019036442"><ele>5.0</ele><time>2026-04-11T06:29:19Z</time></trkpt><trkpt lat="43.3229702170127" lon="10.509885047015972"><ele>5.0</ele><time>2026-04-11T06:29:23Z</time></trkpt><trkpt lat="43.32293470026502" lon="10.509965181533335"><ele>5.0</ele><time>2026-04-11T06:29:28Z</time></trkpt><trkpt lat="43.32286549519791" lon="10.510011310523238"><ele>5.0</ele><time>2026-04-11T06:29:34Z</time></trkpt><trkpt lat="43.32279866323819" lon="10.51004787133127"><ele>5.0</ele><time>2026-04-11T06:29:39Z</time></trkpt><trkpt lat="43.32273648695228" lon="10.51008921333765"><ele>5.0</ele><time>2026-04-11T06:29:44Z</time></trkpt><trkpt lat="43.32267095881947" lon="10.510110543125027"><ele>5.0</ele><time>2026-04-11T06:29:49Z</time></trkpt><trkpt lat="43.322603922593814" lon="10.510149050085564"><ele>5.0</ele><time>2026-04-11T06:29:54Z</time></trkpt><trkpt lat="43.32253782626444" lon="10.510194119866936"><ele>5.0</ele><time>2026-04-11T06:29:59Z</time></trkpt><trkpt lat="43.32246960759755" lon="10.510244614703236"><ele>5.0</ele><time>2026-04-11T06:30:04Z</time></trkpt><trkpt lat="43.32239912506606" lon="10.510285284330593"><ele>5.0</ele><time>2026-04-11T06:30:09Z</time></trkpt><trkpt lat="43.32234136007046" lon="10.510326376504986"><ele>5.0</ele><time>2026-04-11T06:30:13Z</time></trkpt><trkpt lat="43.322280604894786" lon="10.510359884030699"><ele>5.0</ele><time>2026-04-11T06:30:18Z</time></trkpt><trkpt lat="43.322219323091154" lon="10.510401844939777"><ele>5.0</ele><time>2026-04-11T06:30:23Z</time></trkpt><trkpt lat="43.3221621980089" lon="10.510440049560406"><ele>5.0</ele><time>2026-04-11T06:30:27Z</time></trkpt><trkpt lat="43.32209685874024" lon="10.51047951371112"><ele>4.714285714285714</ele><time>2026-04-11T06:30:32Z</time></trkpt><trkpt lat="43.32203633003884" lon="10.510513424421356"><ele>4.428571428571429</ele><time>2026-04-11T06:30:37Z</time></trkpt><trkpt lat="43.32196539789671" lon="10.510558496195188"><ele>4.142857142857142</ele><time>2026-04-11T06:30:43Z</time></trkpt><trkpt lat="43.32190345311756" lon="10.510590506412289"><ele>3.8571428571428568</ele><time>2026-04-11T06:30:47Z</time></trkpt><trkpt lat="43.32183694781563" lon="10.510635287643247"><ele>3.571428571428571</ele><time>2026-04-11T06:30:52Z</time></trkpt><trkpt lat="43.32176707622994" lon="10.510679133391692"><ele>3.2857142857142856</ele><time>2026-04-11T06:30:58Z</time></trkpt><trkpt lat="43.321699590659186" lon="10.510724742665213"><ele>3.0</ele><time>2026-04-11T06:31:03Z</time></trkpt><trkpt lat="43.32164024387073" lon="10.510761404728457"><ele>2.9999999999999996</ele><time>2026-04-11T06:31:08Z</time></trkpt><trkpt lat="43.32157153881937" lon="10.510807959957813"><ele>3.0</ele><time>2026-04-11T06:31:13Z</time></trkpt><trkpt lat="43.321501074986585" lon="10.510844876437744"><ele>3.0</ele><time>2026-04-11T06:31:18Z</time></trkpt><trkpt lat="43.3214327715337" lon="10.51088438992205"><ele>3.0</ele><time>2026-04-11T06:31:23Z</time></trkpt><trkpt lat="43.32136927434118" lon="10.510926729000852"><ele>3.0</ele><time>2026-04-11T06:31:28Z</time></trkpt><trkpt lat="43.32130313301858" lon="10.510970464860732"><ele>2.9999999999999996</ele><time>2026-04-11T06:31:33Z</time></trkpt><trkpt lat="43.32124670223667" lon="10.511018138621223"><ele>3.0</ele><time>2026-04-11T06:31:38Z</time></trkpt><trkpt lat="43.32118665176609" lon="10.511053733452831"><ele>3.2857142857142856</ele><time>2026-04-11T06:31:43Z</time></trkpt><trkpt lat="43.321116587437906" lon="10.511109333645516"><ele>3.571428571428571</ele><time>2026-04-11T06:31:48Z</time></trkpt><trkpt lat="43.32106053459223" lon="10.511155975615482"><ele>3.8571428571428568</ele><time>2026-04-11T06:31:52Z</time></trkpt><trkpt lat="43.32099382579247" lon="10.511180681820692"><ele>4.142857142857142</ele><time>2026-04-11T06:31:57Z</time></trkpt><trkpt lat="43.32092783239073" lon="10.511226395996388"><ele>4.428571428571429</ele><time>2026-04-11T06:32:02Z</time></trkpt><trkpt lat="43.32085811036238" lon="10.511269466466052"><ele>4.714285714285714</ele><time>2026-04-11T06:32:07Z</time></trkpt><trkpt lat="43.32078500547121" lon="10.511309431129492"><ele>5.0</ele><time>2026-04-11T06:32:13Z</time></trkpt><trkpt lat="43.320720834017834" lon="10.511357597147619"><ele>5.0</ele><time>2026-04-11T06:32:18Z</time></trkpt><trkpt lat="43.320664060502" lon="10.511403659298438"><ele>5.0</ele><time>2026-04-11T06:32:22Z</time></trkpt><trkpt lat="43.32059809779175" lon="10.511449205417673"><ele>5.0</ele><time>2026-04-11T06:32:28Z</time></trkpt><trkpt lat="43.32053506203957" lon="10.511481889067378"><ele>5.0</ele><time>2026-04-11T06:32:33Z</time></trkpt><trkpt lat="43.32047385046656" lon="10.511508102044584"><ele>5.0</ele><time>2026-04-11T06:32:38Z</time></trkpt><trkpt lat="43.320412722854755" lon="10.511531758591389"><ele>5.0</ele><time>2026-04-11T06:32:43Z</time></trkpt><trkpt lat="43.32033674290833" lon="10.511571520724708"><ele>5.0</ele><time>2026-04-11T06:32:48Z</time></trkpt><trkpt lat="43.32026635601967" lon="10.51162657748238"><ele>5.0</ele><time>2026-04-11T06:32:53Z</time></trkpt><trkpt lat="43.320199336916865" lon="10.511660975746716"><ele>5.0</ele><time>2026-04-11T06:32:58Z</time></trkpt><trkpt lat="43.32014537973297" lon="10.511706230340256"><ele>5.0</ele><time>2026-04-11T06:33:02Z</time></trkpt><trkpt lat="43.3200753965796" lon="10.51175117617741"><ele>5.0</ele><time>2026-04-11T06:33:07Z</time></trkpt><trkpt lat="43.32000457615715" lon="10.511797413804592"><ele>5.0</ele><time>2026-04-11T06:33:12Z</time></trkpt><trkpt lat="43.31994278302655" lon="10.511843815986646"><ele>5.0</ele><time>2026-04-11T06:33:16Z</time></trkpt><trkpt lat="43.319880187511664" lon="10.511892891010719"><ele>5.0</ele><time>2026-04-11T06:33:21Z</time></trkpt><trkpt lat="43.31981930556114" lon="10.511935297199962"><ele>5.0</ele><time>2026-04-11T06:33:26Z</time></trkpt><trkpt lat="43.31975378267219" lon="10.511982727565629"><ele>5.0</ele><time>2026-04-11T06:33:31Z</time></trkpt><trkpt lat="43.31969595527025" lon="10.512019034857035"><ele>5.0</ele><time>2026-04-11T06:33:35Z</time></trkpt><trkpt lat="43.31962649477301" lon="10.512042741004587"><ele>5.0</ele><time>2026-04-11T06:33:39Z</time></trkpt><trkpt lat="43.319566676786245" lon="10.51209260546958"><ele>5.0</ele><time>2026-04-11T06:33:45Z</time></trkpt><trkpt lat="43.319509202338125" lon="10.51213316846541"><ele>5.0</ele><time>2026-04-11T06:33:50Z</time></trkpt><trkpt lat="43.319439270906955" lon="10.512177825927806"><ele>5.0</ele><time>2026-04-11T06:33:55Z</time></trkpt><trkpt lat="43.319371367728735" lon="10.51219939377365"><ele>5.0</ele><time>2026-04-11T06:34:00Z</time></trkpt><trkpt lat="43.31930327732235" lon="10.512238207170643"><ele>5.0</ele><time>2026-04-11T06:34:05Z</time></trkpt><trkpt lat="43.31923053881545" lon="10.512265533034496"><ele>5.0</ele><time>2026-04-11T06:34:11Z</time></trkpt><trkpt lat="43.319164647506746" lon="10.512294247202064"><ele>5.0</ele><time>2026-04-11T06:34:16Z</time></trkpt><trkpt lat="43.31909449954361" lon="10.512335661445158"><ele>5.0</ele><time>2026-04-11T06:34:22Z</time></trkpt><trkpt lat="43.31902960351123" lon="10.512373042000327"><ele>5.0</ele><time>2026-04-11T06:34:27Z</time></trkpt><trkpt lat="43.31895992497433" lon="10.512419539496223"><ele>5.0</ele><time>2026-04-11T06:34:32Z</time></trkpt><trkpt lat="43.31889588469071" lon="10.512455498900923"><ele>5.0</ele><time>2026-04-11T06:34:36Z</time></trkpt><trkpt lat="43.31883579458831" lon="10.512508670971402"><ele>5.0</ele><time>2026-04-11T06:34:40Z</time></trkpt><trkpt lat="43.31876824562371" lon="10.512560800411652"><ele>5.0</ele><time>2026-04-11T06:34:45Z</time></trkpt><trkpt lat="43.31870032732578" lon="10.512586852789527"><ele>5.0</ele><time>2026-04-11T06:34:50Z</time></trkpt><trkpt lat="43.31863418039425" lon="10.51262231431468"><ele>5.0</ele><time>2026-04-11T06:34:55Z</time></trkpt><trkpt lat="43.3185719258497" lon="10.512641452945646"><ele>5.0</ele><time>2026-04-11T06:35:00Z</time></trkpt><trkpt lat="43.31849986480111" lon="10.512663363827052"><ele>5.0</ele><time>2026-04-11T06:35:05Z</time></trkpt><trkpt lat="43.31843655071201" lon="10.512690014828046"><ele>5.0</ele><time>2026-04-11T06:35:10Z</time></trkpt><trkpt lat="43.3183659704248" lon="10.512718580005435"><ele>5.0</ele><time>2026-04-11T06:35:15Z</time></trkpt><trkpt lat="43.318301520976334" lon="10.512741446190377"><ele>5.0</ele><time>2026-04-11T06:35:20Z</time></trkpt><trkpt lat="43.31824185247746" lon="10.512777457902551"><ele>5.0</ele><time>2026-04-11T06:35:24Z</time></trkpt><trkpt lat="43.3181782508979" lon="10.512802440463972"><ele>5.0</ele><time>2026-04-11T06:35:29Z</time></trkpt><trkpt lat="43.31811012401724" lon="10.512836610247753"><ele>5.0</ele><time>2026-04-11T06:35:35Z</time></trkpt><trkpt lat="43.31804828006738" lon="10.512862800045724"><ele>5.0</ele><time>2026-04-11T06:35:39Z</time></trkpt><trkpt lat="43.317984834165735" lon="10.512889086089212"><ele>4.571428571428571</ele><time>2026-04-11T06:35:43Z</time></trkpt><trkpt lat="43.317909497982704" lon="10.51292053090026"><ele>4.142857142857143</ele><time>2026-04-11T06:35:48Z</time></trkpt><trkpt lat="43.31783998265605" lon="10.512953875655429"><ele>3.7142857142857144</ele><time>2026-04-11T06:35:53Z</time></trkpt><trkpt lat="43.31777414830629" lon="10.512971660190725"><ele>3.2857142857142856</ele><time>2026-04-11T06:35:58Z</time></trkpt><trkpt lat="43.317711329233376" lon="10.512985700949773"><ele>2.8571428571428568</ele><time>2026-04-11T06:36:03Z</time></trkpt><trkpt lat="43.31764594106028" lon="10.512998691935332"><ele>2.4285714285714284</ele><time>2026-04-11T06:36:08Z</time></trkpt><trkpt lat="43.31758121159214" lon="10.513025047525351"><ele>2.0</ele><time>2026-04-11T06:36:12Z</time></trkpt><trkpt lat="43.31751909684571" lon="10.513052423521309"><ele>2.0</ele><time>2026-04-11T06:36:16Z</time></trkpt><trkpt lat="43.31745435880351" lon="10.513086208283758"><ele>1.9999999999999998</ele><time>2026-04-11T06:36:21Z</time></trkpt><trkpt lat="43.3173863907114" lon="10.513104658875795"><ele>2.0</ele><time>2026-04-11T06:36:26Z</time></trkpt><trkpt lat="43.31732024807872" lon="10.513128944972852"><ele>2.0</ele><time>2026-04-11T06:36:31Z</time></trkpt><trkpt lat="43.31725526215717" lon="10.513150148160653"><ele>1.9999999999999998</ele><time>2026-04-11T06:36:36Z</time></trkpt><trkpt lat="43.31718220497985" lon="10.513176395294318"><ele>2.0</ele><time>2026-04-11T06:36:42Z</time></trkpt><trkpt lat="43.31712411299104" lon="10.513212146201784"><ele>2.0</ele><time>2026-04-11T06:36:47Z</time></trkpt><trkpt lat="43.31704645994866" lon="10.513228835320161"><ele>2.142857142857143</ele><time>2026-04-11T06:36:52Z</time></trkpt><trkpt lat="43.316973034808434" lon="10.513245047209827"><ele>2.2857142857142856</ele><time>2026-04-11T06:36:56Z</time></trkpt><trkpt lat="43.31690937372738" lon="10.513280678202735"><ele>2.4285714285714284</ele><time>2026-04-11T06:37:00Z</time></trkpt><trkpt lat="43.316849245501295" lon="10.513316503428758"><ele>2.571428571428571</ele><time>2026-04-11T06:37:04Z</time></trkpt><trkpt lat="43.31678430332458" lon="10.513345632473154"><ele>2.7142857142857144</ele><time>2026-04-11T06:37:08Z</time></trkpt><trkpt lat="43.316721516733466" lon="10.51337059379922"><ele>2.8571428571428568</ele><time>2026-04-11T06:37:12Z</time></trkpt><trkpt lat="43.316648233936476" lon="10.513379394857393"><ele>3.0</ele><time>2026-04-11T06:37:18Z</time></trkpt><trkpt lat="43.316577410993766" lon="10.513392612752165"><ele>2.9999999999999996</ele><time>2026-04-11T06:37:24Z</time></trkpt><trkpt lat="43.31652357267172" lon="10.513439519273577"><ele>3.0</ele><time>2026-04-11T06:37:28Z</time></trkpt><trkpt lat="43.31646373548394" lon="10.513482354298283"><ele>3.0</ele><time>2026-04-11T06:37:32Z</time></trkpt><trkpt lat="43.31639155080642" lon="10.513507238639393"><ele>3.0</ele><time>2026-04-11T06:37:38Z</time></trkpt><trkpt lat="43.31631692515773" lon="10.513521416444803"><ele>3.0</ele><time>2026-04-11T06:37:43Z</time></trkpt><trkpt lat="43.316252136634404" lon="10.513543630625382"><ele>2.9999999999999996</ele><time>2026-04-11T06:37:48Z</time></trkpt><trkpt lat="43.31619359730891" lon="10.513580564798643"><ele>3.0</ele><time>2026-04-11T06:37:52Z</time></trkpt><trkpt lat="43.3161311110119" lon="10.513613513604476"><ele>3.1428571428571423</ele><time>2026-04-11T06:37:56Z</time></trkpt><trkpt lat="43.316067204277765" lon="10.513636116546028"><ele>3.2857142857142856</ele><time>2026-04-11T06:38:01Z</time></trkpt><trkpt lat="43.31599897956789" lon="10.513659551958838"><ele>3.4285714285714284</ele><time>2026-04-11T06:38:06Z</time></trkpt><trkpt lat="43.315937001772866" lon="10.513681258204144"><ele>3.571428571428571</ele><time>2026-04-11T06:38:11Z</time></trkpt><trkpt lat="43.31586939348071" lon="10.513721268698248"><ele>3.714285714285714</ele><time>2026-04-11T06:38:16Z</time></trkpt><trkpt lat="43.31580594544602" lon="10.513757996516562"><ele>3.8571428571428568</ele><time>2026-04-11T06:38:22Z</time></trkpt><trkpt lat="43.31574226646033" lon="10.513793598028007"><ele>4.0</ele><time>2026-04-11T06:38:27Z</time></trkpt><trkpt lat="43.31567039462723" lon="10.51382846097503"><ele>4.142857142857142</ele><time>2026-04-11T06:38:32Z</time></trkpt><trkpt lat="43.315610337039296" lon="10.513889853114474"><ele>4.285714285714286</ele><time>2026-04-11T06:38:38Z</time></trkpt><trkpt lat="43.31555564739451" lon="10.513940181398977"><ele>4.428571428571429</ele><time>2026-04-11T06:38:43Z</time></trkpt><trkpt lat="43.315493351555766" lon="10.513999890985215"><ele>4.571428571428571</ele><time>2026-04-11T06:38:49Z</time></trkpt><trkpt lat="43.31543469185228" lon="10.514041275958881"><ele>4.714285714285714</ele><time>2026-04-11T06:38:54Z</time></trkpt><trkpt lat="43.31537986270397" lon="10.51408861499208"><ele>4.857142857142857</ele><time>2026-04-11T06:38:58Z</time></trkpt><trkpt lat="43.31532482239564" lon="10.514145895347598"><ele>5.0</ele><time>2026-04-11T06:39:02Z</time></trkpt><trkpt lat="43.315258936857134" lon="10.51419800511717"><ele>5.0</ele><time>2026-04-11T06:39:07Z</time></trkpt><trkpt lat="43.31519990350344" lon="10.514250901879407"><ele>5.0</ele><time>2026-04-11T06:39:13Z</time></trkpt><trkpt lat="43.31514412023376" lon="10.514306125723207"><ele>5.0</ele><time>2026-04-11T06:39:18Z</time></trkpt><trkpt lat="43.315075657138344" lon="10.514340838463275"><ele>5.0</ele><time>2026-04-11T06:39:23Z</time></trkpt><trkpt lat="43.3150214596524" lon="10.51439985225228"><ele>5.0</ele><time>2026-04-11T06:39:29Z</time></trkpt><trkpt lat="43.3149807916812" lon="10.514483318375087"><ele>5.0</ele><time>2026-04-11T06:39:40Z</time></trkpt><trkpt lat="43.31491540274428" lon="10.51451616564789"><ele>5.0</ele><time>2026-04-11T06:39:45Z</time></trkpt><trkpt lat="43.31485404927481" lon="10.51457319128665"><ele>4.857142857142857</ele><time>2026-04-11T06:39:51Z</time></trkpt><trkpt lat="43.3147911789835" lon="10.514626818192893"><ele>4.714285714285714</ele><time>2026-04-11T06:39:57Z</time></trkpt><trkpt lat="43.31473525931623" lon="10.514678214804208"><ele>4.571428571428571</ele><time>2026-04-11T06:40:02Z</time></trkpt><trkpt lat="43.314671381130715" lon="10.514716248773183"><ele>4.428571428571429</ele><time>2026-04-11T06:40:08Z</time></trkpt><trkpt lat="43.31461542827293" lon="10.514757401040056"><ele>4.285714285714286</ele><time>2026-04-11T06:40:13Z</time></trkpt><trkpt lat="43.31455532711775" lon="10.514803608461262"><ele>4.142857142857142</ele><time>2026-04-11T06:40:18Z</time></trkpt><trkpt lat="43.31448915090272" lon="10.51482874544667"><ele>4.0</ele><time>2026-04-11T06:40:24Z</time></trkpt><trkpt lat="43.31443051167591" lon="10.51477881403572"><ele>4.714285714285714</ele><time>2026-04-11T06:40:29Z</time></trkpt><trkpt lat="43.31436134031672" lon="10.514792052894997"><ele>5.428571428571429</ele><time>2026-04-11T06:40:36Z</time></trkpt><trkpt lat="43.31431405811854" lon="10.514856346914467"><ele>6.142857142857143</ele><time>2026-04-11T06:40:41Z</time></trkpt><trkpt lat="43.31427248782204" lon="10.514926494256482"><ele>6.857142857142858</ele><time>2026-04-11T06:40:45Z</time></trkpt><trkpt lat="43.31422788472506" lon="10.514997989504463"><ele>7.571428571428571</ele><time>2026-04-11T06:40:49Z</time></trkpt><trkpt lat="43.3141740240915" lon="10.51506549767138"><ele>8.285714285714286</ele><time>2026-04-11T06:40:55Z</time></trkpt><trkpt lat="43.314125696728226" lon="10.515140687311685"><ele>9.0</ele><time>2026-04-11T06:41:00Z</time></trkpt><trkpt lat="43.31406632000262" lon="10.515194983938517"><ele>9.000000000000002</ele><time>2026-04-11T06:41:05Z</time></trkpt><trkpt lat="43.314020557681935" lon="10.515254856199434"><ele>9.0</ele><time>2026-04-11T06:41:10Z</time></trkpt><trkpt lat="43.31396970516773" lon="10.515316113612197"><ele>9.0</ele><time>2026-04-11T06:41:15Z</time></trkpt><trkpt lat="43.31391030451619" lon="10.515376579303215"><ele>9.0</ele><time>2026-04-11T06:41:20Z</time></trkpt><trkpt lat="43.31384995408437" lon="10.515404804996615"><ele>9.0</ele><time>2026-04-11T06:41:24Z</time></trkpt><trkpt lat="43.313791323416424" lon="10.515437358282256"><ele>9.000000000000002</ele><time>2026-04-11T06:41:28Z</time></trkpt><trkpt lat="43.31372298366179" lon="10.515480424934227"><ele>9.0</ele><time>2026-04-11T06:41:33Z</time></trkpt><trkpt lat="43.31366017900776" lon="10.515523632644857"><ele>9.428571428571429</ele><time>2026-04-11T06:41:38Z</time></trkpt><trkpt lat="43.31359464356484" lon="10.515582152461638"><ele>9.857142857142858</ele><time>2026-04-11T06:41:43Z</time></trkpt><trkpt lat="43.313531730134805" lon="10.515609612312353"><ele>10.285714285714285</ele><time>2026-04-11T06:41:49Z</time></trkpt><trkpt lat="43.313470400682625" lon="10.515685760699665"><ele>10.714285714285715</ele><time>2026-04-11T06:41:54Z</time></trkpt><trkpt lat="43.31340964318143" lon="10.515744810505366"><ele>11.142857142857142</ele><time>2026-04-11T06:41:59Z</time></trkpt><trkpt lat="43.313345187108695" lon="10.515786481331064"><ele>11.571428571428571</ele><time>2026-04-11T06:42:05Z</time></trkpt><trkpt lat="43.313294361040874" lon="10.515837780405288"><ele>12.0</ele><time>2026-04-11T06:42:09Z</time></trkpt><trkpt lat="43.31324103190136" lon="10.51589226171745"><ele>11.999999999999998</ele><time>2026-04-11T06:42:15Z</time></trkpt><trkpt lat="43.31318467695135" lon="10.515958395296565"><ele>12.0</ele><time>2026-04-11T06:42:21Z</time></trkpt><trkpt lat="43.313134234251855" lon="10.516010980674258"><ele>12.0</ele><time>2026-04-11T06:42:25Z</time></trkpt><trkpt lat="43.31307060116001" lon="10.516051734365055"><ele>12.0</ele><time>2026-04-11T06:42:30Z</time></trkpt><trkpt lat="43.31303122950366" lon="10.516124010248642"><ele>12.0</ele><time>2026-04-11T06:42:37Z</time></trkpt><trkpt lat="43.31297996157666" lon="10.516196089355036"><ele>11.999999999999998</ele><time>2026-04-11T06:42:41Z</time></trkpt><trkpt lat="43.31292983242709" lon="10.516258665874519"><ele>12.0</ele><time>2026-04-11T06:42:45Z</time></trkpt><trkpt lat="43.312866351570335" lon="10.516318372929954"><ele>12.285714285714285</ele><time>2026-04-11T06:42:49Z</time></trkpt><trkpt lat="43.31280699984583" lon="10.516375825409822"><ele>12.571428571428571</ele><time>2026-04-11T06:42:54Z</time></trkpt><trkpt lat="43.312735357752025" lon="10.516374265775934"><ele>12.857142857142858</ele><time>2026-04-11T06:42:59Z</time></trkpt><trkpt lat="43.31266002576137" lon="10.516381545309027"><ele>13.142857142857142</ele><time>2026-04-11T06:43:04Z</time></trkpt><trkpt lat="43.312598214795315" lon="10.516423705334965"><ele>13.428571428571429</ele><time>2026-04-11T06:43:08Z</time></trkpt><trkpt lat="43.3125405055329" lon="10.516479082967649"><ele>13.714285714285714</ele><time>2026-04-11T06:43:13Z</time></trkpt><trkpt lat="43.31248012096601" lon="10.516511940916685"><ele>14.0</ele><time>2026-04-11T06:43:18Z</time></trkpt><trkpt lat="43.312420558960234" lon="10.516564364183038"><ele>14.0</ele><time>2026-04-11T06:43:23Z</time></trkpt><trkpt lat="43.31237316015963" lon="10.516623158269798"><ele>14.0</ele><time>2026-04-11T06:43:27Z</time></trkpt><trkpt lat="43.31230362077957" lon="10.516666513718642"><ele>14.0</ele><time>2026-04-11T06:43:32Z</time></trkpt><trkpt lat="43.31223246115898" lon="10.516689755573601"><ele>14.0</ele><time>2026-04-11T06:43:44Z</time></trkpt><trkpt lat="43.31217029537835" lon="10.516731310176235"><ele>14.0</ele><time>2026-04-11T06:43:51Z</time></trkpt><trkpt lat="43.312091136135294" lon="10.516771735178457"><ele>14.0</ele><time>2026-04-11T06:45:35Z</time></trkpt><trkpt lat="43.31202654066887" lon="10.516813239256827"><ele>14.0</ele><time>2026-04-11T06:45:43Z</time></trkpt><trkpt lat="43.311970489866106" lon="10.516883339377154"><ele>14.142857142857142</ele><time>2026-04-11T06:45:49Z</time></trkpt><trkpt lat="43.311928300524244" lon="10.516959210529436"><ele>14.285714285714285</ele><time>2026-04-11T06:45:54Z</time></trkpt><trkpt lat="43.311873357113235" lon="10.517042335000639"><ele>14.428571428571429</ele><time>2026-04-11T06:45:59Z</time></trkpt><trkpt lat="43.31181785191762" lon="10.517094006915887"><ele>14.571428571428571</ele><time>2026-04-11T06:46:04Z</time></trkpt><trkpt lat="43.31177180349977" lon="10.51715750139124"><ele>14.714285714285714</ele><time>2026-04-11T06:46:09Z</time></trkpt><trkpt lat="43.31171303725125" lon="10.517206380484717"><ele>14.857142857142858</ele><time>2026-04-11T06:46:14Z</time></trkpt><trkpt lat="43.31165875706188" lon="10.517251306423343"><ele>15.0</ele><time>2026-04-11T06:46:18Z</time></trkpt><trkpt lat="43.3115976147411" lon="10.517290829130317"><ele>15.142857142857142</ele><time>2026-04-11T06:46:23Z</time></trkpt><trkpt lat="43.311540683826166" lon="10.517335767626909"><ele>15.285714285714285</ele><time>2026-04-11T06:46:28Z</time></trkpt><trkpt lat="43.31147261159232" lon="10.517349093650319"><ele>15.428571428571427</ele><time>2026-04-11T06:46:32Z</time></trkpt><trkpt lat="43.31141645459031" lon="10.517391843864814"><ele>15.571428571428571</ele><time>2026-04-11T06:46:36Z</time></trkpt><trkpt lat="43.3113505318642" lon="10.517411371195013"><ele>15.714285714285712</ele><time>2026-04-11T06:46:41Z</time></trkpt><trkpt lat="43.31128471644501" lon="10.517444653653195"><ele>15.857142857142856</ele><time>2026-04-11T06:46:48Z</time></trkpt><trkpt lat="43.31121490856515" lon="10.517473948261658"><ele>16.0</ele><time>2026-04-11T06:46:54Z</time></trkpt><trkpt lat="43.31114427982978" lon="10.517496385152619"><ele>16.0</ele><time>2026-04-11T06:47:00Z</time></trkpt><trkpt lat="43.31108085714784" lon="10.517548134865057"><ele>15.999999999999998</ele><time>2026-04-11T06:47:07Z</time></trkpt><trkpt lat="43.3110166275599" lon="10.517536810263797"><ele>16.0</ele><time>2026-04-11T06:47:11Z</time></trkpt><trkpt lat="43.31094221177154" lon="10.517526694446277"><ele>16.0</ele><time>2026-04-11T06:47:17Z</time></trkpt><trkpt lat="43.3108812083197" lon="10.517564348924935"><ele>15.999999999999998</ele><time>2026-04-11T06:47:23Z</time></trkpt><trkpt lat="43.31085154371702" lon="10.517649667740969"><ele>16.0</ele><time>2026-04-11T06:47:26Z</time></trkpt><trkpt lat="43.310802343241555" lon="10.51770658091476"><ele>16.0</ele><time>2026-04-11T06:47:31Z</time></trkpt><trkpt lat="43.31074523987791" lon="10.517779680959226"><ele>16.0</ele><time>2026-04-11T06:47:35Z</time></trkpt><trkpt lat="43.31067886616368" lon="10.517819406761015"><ele>15.999999999999998</ele><time>2026-04-11T06:47:42Z</time></trkpt><trkpt lat="43.310616507302235" lon="10.517836213851863"><ele>16.0</ele><time>2026-04-11T06:47:47Z</time></trkpt><trkpt lat="43.3105416009351" lon="10.517856365798787"><ele>16.0</ele><time>2026-04-11T06:47:52Z</time></trkpt><trkpt lat="43.310531439813225" lon="10.517947273856883"><ele>15.999999999999998</ele><time>2026-04-11T06:47:56Z</time></trkpt><trkpt lat="43.31045255196778" lon="10.517962355620996"><ele>16.0</ele><time>2026-04-11T06:48:02Z</time></trkpt><trkpt lat="43.310383969792625" lon="10.517977318429606"><ele>16.0</ele><time>2026-04-11T06:48:07Z</time></trkpt><trkpt lat="43.310311653662204" lon="10.517981203836925"><ele>16.285714285714285</ele><time>2026-04-11T06:48:13Z</time></trkpt><trkpt lat="43.31024501942525" lon="10.517990786456517"><ele>16.57142857142857</ele><time>2026-04-11T06:48:18Z</time></trkpt><trkpt lat="43.31017679616667" lon="10.517976356507324"><ele>16.857142857142858</ele><time>2026-04-11T06:48:23Z</time></trkpt><trkpt lat="43.31010076901343" lon="10.51794179993783"><ele>17.142857142857142</ele><time>2026-04-11T06:48:26Z</time></trkpt><trkpt lat="43.310036656525064" lon="10.517981798787492"><ele>17.42857142857143</ele><time>2026-04-11T06:48:32Z</time></trkpt><trkpt lat="43.309966778643876" lon="10.517983184525573"><ele>17.714285714285715</ele><time>2026-04-11T06:48:36Z</time></trkpt><trkpt lat="43.30990416083425" lon="10.518014594609381"><ele>18.0</ele><time>2026-04-11T06:48:40Z</time></trkpt><trkpt lat="43.30983386072284" lon="10.51802846397141"><ele>18.000000000000004</ele><time>2026-04-11T06:48:45Z</time></trkpt><trkpt lat="43.30978402552318" lon="10.518082546379084"><ele>18.0</ele><time>2026-04-11T06:48:49Z</time></trkpt><trkpt lat="43.30978777844836" lon="10.518168940816702"><ele>18.0</ele><time>2026-04-11T06:48:51Z</time></trkpt><trkpt lat="43.3097386546803" lon="10.51823858284657"><ele>18.0</ele><time>2026-04-11T06:48:55Z</time></trkpt><trkpt lat="43.309674650263176" lon="10.51827410317455"><ele>18.0</ele><time>2026-04-11T06:49:00Z</time></trkpt><trkpt lat="43.30961176707593" lon="10.518293386979478"><ele>18.000000000000004</ele><time>2026-04-11T06:49:06Z</time></trkpt><trkpt lat="43.30954877361692" lon="10.518312874525275"><ele>18.0</ele><time>2026-04-11T06:49:10Z</time></trkpt><trkpt lat="43.3094729055501" lon="10.518324736000702"><ele>17.0</ele><time>2026-04-11T06:49:16Z</time></trkpt><trkpt lat="43.309404547228255" lon="10.51837942205459"><ele>16.0</ele><time>2026-04-11T06:49:20Z</time></trkpt><trkpt lat="43.309358495448976" lon="10.518464704825748"><ele>15.0</ele><time>2026-04-11T06:49:26Z</time></trkpt><trkpt lat="43.3093266911262" lon="10.518541013677215"><ele>14.0</ele><time>2026-04-11T06:49:30Z</time></trkpt><trkpt lat="43.309259713831466" lon="10.51864375861918"><ele>13.0</ele><time>2026-04-11T06:49:38Z</time></trkpt><trkpt lat="43.30923409222195" lon="10.518740042065541"><ele>12.0</ele><time>2026-04-11T06:50:04Z</time></trkpt><trkpt lat="43.309283888160095" lon="10.518811646848143"><ele>11.857142857142856</ele><time>2026-04-11T06:50:09Z</time></trkpt><trkpt lat="43.309316873903285" lon="10.518892847124611"><ele>11.714285714285714</ele><time>2026-04-11T06:50:13Z</time></trkpt><trkpt lat="43.309362827855836" lon="10.51895274596859"><ele>11.571428571428571</ele><time>2026-04-11T06:50:17Z</time></trkpt><trkpt lat="43.30940496811771" lon="10.519043298955868"><ele>11.428571428571427</ele><time>2026-04-11T06:50:21Z</time></trkpt><trkpt lat="43.309426588285206" lon="10.519125771372083"><ele>11.285714285714285</ele><time>2026-04-11T06:50:25Z</time></trkpt><trkpt lat="43.30944468475085" lon="10.519211691395357"><ele>11.142857142857142</ele><time>2026-04-11T06:50:30Z</time></trkpt><trkpt lat="43.30946465342484" lon="10.519305450735489"><ele>11.0</ele><time>2026-04-11T06:50:34Z</time></trkpt><trkpt lat="43.30950021433525" lon="10.519413772226393"><ele>11.0</ele><time>2026-04-11T06:50:38Z</time></trkpt><trkpt lat="43.30951774695439" lon="10.519496901640142"><ele>11.0</ele><time>2026-04-11T06:50:42Z</time></trkpt><trkpt lat="43.3095593802225" lon="10.519579108833486"><ele>11.0</ele><time>2026-04-11T06:50:46Z</time></trkpt><trkpt lat="43.30959739414551" lon="10.519661864690638"><ele>11.0</ele><time>2026-04-11T06:50:51Z</time></trkpt><trkpt lat="43.30963129341557" lon="10.519759745811815"><ele>11.0</ele><time>2026-04-11T06:50:56Z</time></trkpt><trkpt lat="43.309636982121845" lon="10.519859418742696"><ele>11.0</ele><time>2026-04-11T06:50:59Z</time></trkpt><trkpt lat="43.30964431288344" lon="10.519951338606585"><ele>11.0</ele><time>2026-04-11T06:51:03Z</time></trkpt><trkpt lat="43.30968190300839" lon="10.520033424182031"><ele>11.142857142857142</ele><time>2026-04-11T06:51:07Z</time></trkpt><trkpt lat="43.30971978647349" lon="10.520129291177533"><ele>11.285714285714285</ele><time>2026-04-11T06:51:13Z</time></trkpt><trkpt lat="43.30973591845903" lon="10.520226591576774"><ele>11.428571428571427</ele><time>2026-04-11T06:51:17Z</time></trkpt><trkpt lat="43.30974829300985" lon="10.520315347584141"><ele>11.571428571428571</ele><time>2026-04-11T06:51:21Z</time></trkpt><trkpt lat="43.30973433876384" lon="10.52042151042715"><ele>11.714285714285714</ele><time>2026-04-11T06:51:27Z</time></trkpt><trkpt lat="43.30968852716249" lon="10.520489147533901"><ele>11.857142857142856</ele><time>2026-04-11T06:51:31Z</time></trkpt><trkpt lat="43.30962509437373" lon="10.520507753337467"><ele>12.0</ele><time>2026-04-11T06:51:35Z</time></trkpt><trkpt lat="43.30955537620804" lon="10.520552696066042"><ele>12.142857142857142</ele><time>2026-04-11T06:51:40Z</time></trkpt><trkpt lat="43.3094764794458" lon="10.520577617077642"><ele>12.285714285714285</ele><time>2026-04-11T06:51:45Z</time></trkpt><trkpt lat="43.309412719062095" lon="10.520604155370062"><ele>12.428571428571427</ele><time>2026-04-11T06:51:50Z</time></trkpt><trkpt lat="43.30934779128609" lon="10.52067015880622"><ele>12.571428571428571</ele><time>2026-04-11T06:51:54Z</time></trkpt><trkpt lat="43.309288015107136" lon="10.520702988877183"><ele>12.714285714285715</ele><time>2026-04-11T06:51:58Z</time></trkpt><trkpt lat="43.30922753376951" lon="10.520747959243913"><ele>12.857142857142856</ele><time>2026-04-11T06:52:02Z</time></trkpt><trkpt lat="43.309152480678705" lon="10.520761765239314"><ele>13.0</ele><time>2026-04-11T06:52:08Z</time></trkpt><trkpt lat="43.30909966228407" lon="10.520813954065382"><ele>13.0</ele><time>2026-04-11T06:52:14Z</time></trkpt><trkpt lat="43.309041878611055" lon="10.520863582250213"><ele>13.0</ele><time>2026-04-11T06:52:18Z</time></trkpt><trkpt lat="43.30898943478902" lon="10.520916926539979"><ele>13.0</ele><time>2026-04-11T06:52:22Z</time></trkpt><trkpt lat="43.30892711598649" lon="10.520975150658506"><ele>13.0</ele><time>2026-04-11T06:52:27Z</time></trkpt><trkpt lat="43.30886284846827" lon="10.521001021155953"><ele>13.0</ele><time>2026-04-11T06:52:31Z</time></trkpt><trkpt lat="43.308798739769806" lon="10.521027787840241"><ele>13.0</ele><time>2026-04-11T06:52:35Z</time></trkpt><trkpt lat="43.30873084051442" lon="10.5210657795364"><ele>13.0</ele><time>2026-04-11T06:52:39Z</time></trkpt><trkpt lat="43.308663899162546" lon="10.521100046328437"><ele>13.0</ele><time>2026-04-11T06:52:43Z</time></trkpt><trkpt lat="43.308595886287875" lon="10.52113981118799"><ele>13.0</ele><time>2026-04-11T06:52:48Z</time></trkpt><trkpt lat="43.308535502201075" lon="10.521193608065524"><ele>13.0</ele><time>2026-04-11T06:52:52Z</time></trkpt><trkpt lat="43.30846952559138" lon="10.521218396773822"><ele>13.0</ele><time>2026-04-11T06:52:56Z</time></trkpt><trkpt lat="43.30841253231804" lon="10.521267239741372"><ele>13.0</ele><time>2026-04-11T06:53:00Z</time></trkpt><trkpt lat="43.30835050323563" lon="10.521325319761104"><ele>13.0</ele><time>2026-04-11T06:53:05Z</time></trkpt><trkpt lat="43.30828074760656" lon="10.521347296898197"><ele>13.0</ele><time>2026-04-11T06:53:10Z</time></trkpt><trkpt lat="43.308228708059104" lon="10.521287643501914"><ele>13.0</ele><time>2026-04-11T06:53:22Z</time></trkpt><trkpt lat="43.308192833480135" lon="10.521212431594744"><ele>13.0</ele><time>2026-04-11T06:53:26Z</time></trkpt><trkpt lat="43.30825432523246" lon="10.521272477060647"><ele>13.0</ele><time>2026-04-11T06:54:19Z</time></trkpt><trkpt lat="43.308316697539865" lon="10.521237483072204"><ele>13.0</ele><time>2026-04-11T06:54:26Z</time></trkpt><trkpt lat="43.30838770532628" lon="10.52124855600023"><ele>13.0</ele><time>2026-04-11T06:54:31Z</time></trkpt><trkpt lat="43.308457750270875" lon="10.521220676968715"><ele>13.0</ele><time>2026-04-11T06:54:35Z</time></trkpt><trkpt lat="43.308519402831955" lon="10.521176719784474"><ele>13.0</ele><time>2026-04-11T06:54:39Z</time></trkpt><trkpt lat="43.308580086243374" lon="10.521149978906637"><ele>13.0</ele><time>2026-04-11T06:54:43Z</time></trkpt><trkpt lat="43.3086583073317" lon="10.521115801793504"><ele>13.0</ele><time>2026-04-11T06:54:47Z</time></trkpt><trkpt lat="43.308731884343956" lon="10.521071672111844"><ele>13.0</ele><time>2026-04-11T06:54:52Z</time></trkpt><trkpt lat="43.308803967008565" lon="10.521038315234408"><ele>13.0</ele><time>2026-04-11T06:54:56Z</time></trkpt><trkpt lat="43.308867881100525" lon="10.521013069463477"><ele>13.0</ele><time>2026-04-11T06:55:00Z</time></trkpt><trkpt lat="43.30893946592028" lon="10.52100823667388"><ele>13.0</ele><time>2026-04-11T06:55:05Z</time></trkpt><trkpt lat="43.30898692166772" lon="10.52094586439971"><ele>13.0</ele><time>2026-04-11T06:55:09Z</time></trkpt><trkpt lat="43.30905701990585" lon="10.520892105982073"><ele>13.0</ele><time>2026-04-11T06:55:12Z</time></trkpt><trkpt lat="43.30913047322843" lon="10.520885771322117"><ele>13.0</ele><time>2026-04-11T06:55:16Z</time></trkpt><trkpt lat="43.30920122102153" lon="10.520925671579716"><ele>13.0</ele><time>2026-04-11T06:55:22Z</time></trkpt><trkpt lat="43.309280378044036" lon="10.520912402304544"><ele>13.0</ele><time>2026-04-11T06:55:26Z</time></trkpt><trkpt lat="43.309341860009425" lon="10.520878934767934"><ele>13.0</ele><time>2026-04-11T06:55:30Z</time></trkpt><trkpt lat="43.30940900943024" lon="10.520846944867786"><ele>13.0</ele><time>2026-04-11T06:55:34Z</time></trkpt><trkpt lat="43.30946916751386" lon="10.520806202893239"><ele>13.0</ele><time>2026-04-11T06:55:38Z</time></trkpt><trkpt lat="43.30953200361815" lon="10.520767863264025"><ele>13.0</ele><time>2026-04-11T06:55:42Z</time></trkpt><trkpt lat="43.30958940953093" lon="10.520725039293962"><ele>13.0</ele><time>2026-04-11T06:55:46Z</time></trkpt><trkpt lat="43.30965224350557" lon="10.520685178901212"><ele>13.0</ele><time>2026-04-11T06:55:50Z</time></trkpt><trkpt lat="43.30971448227211" lon="10.520668567589"><ele>13.0</ele><time>2026-04-11T06:55:54Z</time></trkpt><trkpt lat="43.30973126748791" lon="10.520763950555141"><ele>13.0</ele><time>2026-04-11T06:55:58Z</time></trkpt><trkpt lat="43.309764060293816" lon="10.520850454469496"><ele>13.0</ele><time>2026-04-11T06:56:03Z</time></trkpt><trkpt lat="43.30978521581866" lon="10.520946281300589"><ele>13.0</ele><time>2026-04-11T06:56:09Z</time></trkpt><trkpt lat="43.30981603822952" lon="10.521044981964172"><ele>13.0</ele><time>2026-04-11T06:56:14Z</time></trkpt><trkpt lat="43.30987975231909" lon="10.52111634625655"><ele>13.0</ele><time>2026-04-11T06:56:18Z</time></trkpt><trkpt lat="43.30989267686044" lon="10.521220075450245"><ele>13.0</ele><time>2026-04-11T06:56:22Z</time></trkpt><trkpt lat="43.30993425625776" lon="10.52128829287299"><ele>13.0</ele><time>2026-04-11T06:56:25Z</time></trkpt><trkpt lat="43.30996271769391" lon="10.521379215035688"><ele>13.0</ele><time>2026-04-11T06:56:29Z</time></trkpt><trkpt lat="43.31000193017536" lon="10.52146096353383"><ele>13.0</ele><time>2026-04-11T06:56:33Z</time></trkpt><trkpt lat="43.31002780358311" lon="10.521555290412449"><ele>13.0</ele><time>2026-04-11T06:56:38Z</time></trkpt><trkpt lat="43.310064856137124" lon="10.521625603334693"><ele>13.0</ele><time>2026-04-11T06:56:42Z</time></trkpt><trkpt lat="43.310082513477916" lon="10.521722513239249"><ele>13.0</ele><time>2026-04-11T06:56:46Z</time></trkpt><trkpt lat="43.310085555995634" lon="10.521816601741213"><ele>13.0</ele><time>2026-04-11T06:56:50Z</time></trkpt><trkpt lat="43.31010924061535" lon="10.521907134625591"><ele>13.0</ele><time>2026-04-11T06:56:54Z</time></trkpt><trkpt lat="43.310131889250364" lon="10.521994744992213"><ele>13.0</ele><time>2026-04-11T06:56:58Z</time></trkpt><trkpt lat="43.310164831638126" lon="10.522086642238664"><ele>13.0</ele><time>2026-04-11T06:57:03Z</time></trkpt><trkpt lat="43.310187458852546" lon="10.522169922738568"><ele>13.0</ele><time>2026-04-11T06:57:08Z</time></trkpt><trkpt lat="43.31023680801775" lon="10.522244565202964"><ele>12.857142857142856</ele><time>2026-04-11T06:57:14Z</time></trkpt><trkpt lat="43.310296611595476" lon="10.52227446817384"><ele>12.714285714285715</ele><time>2026-04-11T06:57:18Z</time></trkpt><trkpt lat="43.3103581117445" lon="10.522298245052385"><ele>12.571428571428571</ele><time>2026-04-11T06:57:23Z</time></trkpt><trkpt lat="43.31042908431704" lon="10.522308093239854"><ele>12.428571428571427</ele><time>2026-04-11T06:57:28Z</time></trkpt><trkpt lat="43.310497415464866" lon="10.5222955413582"><ele>12.285714285714285</ele><time>2026-04-11T06:57:32Z</time></trkpt><trkpt lat="43.31057265083673" lon="10.52227151576957"><ele>12.142857142857142</ele><time>2026-04-11T06:57:36Z</time></trkpt><trkpt lat="43.310640348070045" lon="10.522225145718004"><ele>12.0</ele><time>2026-04-11T06:57:42Z</time></trkpt><trkpt lat="43.310708927524345" lon="10.522186694719046"><ele>12.57142857142857</ele><time>2026-04-11T06:57:46Z</time></trkpt><trkpt lat="43.31075924201772" lon="10.522122549105722"><ele>13.142857142857142</ele><time>2026-04-11T06:57:50Z</time></trkpt><trkpt lat="43.31080848620104" lon="10.52220403420209"><ele>13.714285714285714</ele><time>2026-04-11T06:57:55Z</time></trkpt><trkpt lat="43.31085436697718" lon="10.522276629183088"><ele>14.285714285714285</ele><time>2026-04-11T06:57:59Z</time></trkpt><trkpt lat="43.31089888761087" lon="10.522346582732332"><ele>14.857142857142856</ele><time>2026-04-11T06:58:04Z</time></trkpt><trkpt lat="43.310924838560425" lon="10.522437933494453"><ele>15.428571428571427</ele><time>2026-04-11T06:58:08Z</time></trkpt><trkpt lat="43.31096529472527" lon="10.522516084111716"><ele>16.0</ele><time>2026-04-11T06:58:13Z</time></trkpt><trkpt lat="43.310991039459104" lon="10.522607665320693"><ele>16.0</ele><time>2026-04-11T06:58:18Z</time></trkpt><trkpt lat="43.311014495677" lon="10.522698820431845"><ele>15.999999999999998</ele><time>2026-04-11T06:58:22Z</time></trkpt><trkpt lat="43.311030729496714" lon="10.522789245954755"><ele>16.0</ele><time>2026-04-11T06:58:26Z</time></trkpt><trkpt lat="43.31105322874053" lon="10.522887261054253"><ele>16.0</ele><time>2026-04-11T06:58:31Z</time></trkpt><trkpt lat="43.31107687535605" lon="10.522978926657235"><ele>15.999999999999998</ele><time>2026-04-11T06:58:35Z</time></trkpt><trkpt lat="43.311120272852" lon="10.523060247917583"><ele>16.0</ele><time>2026-04-11T06:58:39Z</time></trkpt><trkpt lat="43.31115201619841" lon="10.523142696774153"><ele>16.0</ele><time>2026-04-11T06:58:43Z</time></trkpt><trkpt lat="43.3111892711454" lon="10.52321472102635"><ele>15.0</ele><time>2026-04-11T06:58:51Z</time></trkpt><trkpt lat="43.311263402222416" lon="10.523183297179557"><ele>15.0</ele><time>2026-04-11T06:58:56Z</time></trkpt></trkseg></trk></gpx>